CWL39 / ZM333 7700 Squawk Report (15th of November, 2018)

Aircraft E50P Reg No. ZM333 Age N/A
Model EMB-500 Jet engines 2 First flight N/A
Registered N/A Rollout N/A Delivered 09-07-17
Construction No. 50000375 Line No. N/A Series N/A
ADSHEX 43C8D4 Airline name Royal Air Force Owner Affinity Flying Training Services Ltd
Airfield based Cranwell~Lincs~G First tracked 2018-05-10 10:39:00

Flight history for ZM333

Route Flight No Date Playback
???? N/A 2018-12-13 17:29:00
???? N/A 2018-12-13 16:39:00
???? N/A 2018-12-13 12:28:00
???? N/A 2018-12-13 09:31:00
???? N/A 2018-12-12 17:24:00
???? N/A 2018-12-12 14:06:00
???? N/A 2018-12-12 11:06:00
???? N/A 2018-12-10 16:32:00
???? N/A 2018-12-10 12:53:00
???? N/A 2018-12-06 13:14:00
???? N/A 2018-12-06 12:07:00
???? N/A 2018-12-04 14:19:00
???? N/A 2018-12-04 11:58:00
???? N/A 2018-12-04 09:30:00
???? N/A 2018-12-03 15:57:00
???? N/A 2018-12-03 12:38:00
???? N/A 2018-12-03 09:31:00
???? N/A 2018-11-30 15:17:00
???? N/A 2018-11-30 12:43:00
???? N/A 2018-11-30 10:00:00
Time Lat Lon Altitude Heading Speed Vertical Rate
2018-11-15 14:36:30 GMT 53.178314 -0.515808 0 351 8 0
2018-11-15 14:36:31 GMT 53.178314 -0.515808 100 202 119 -640
2018-11-15 14:36:25 GMT 53.180904 -0.514096 150 202 119 -640
2018-11-15 14:36:15 GMT 53.185978 -0.510945 250 201 119 -512
2018-11-15 14:36:05 GMT 53.191223 -0.507490 350 203 122 -768
2018-11-15 14:35:55 GMT 53.196396 -0.504116 475 201 122 -704
2018-11-15 14:35:44 GMT 53.202457 -0.500201 600 203 124 -768
2018-11-15 14:35:33 GMT 53.208092 -0.496162 750 205 124 -704
2018-11-15 14:35:22 GMT 53.214050 -0.490830 875 211 126 -768
2018-11-15 14:35:17 GMT 53.216145 -0.488730 950 209 127 -768
2018-11-15 14:35:12 GMT 53.218800 -0.486387 1,000 205 128 -704
2018-11-15 14:35:08 GMT 53.220940 -0.484691 1,100 204 128 -768
2018-11-15 14:35:03 GMT 53.223495 -0.482771 1,100 204 128 -768
2018-11-15 14:34:59 GMT 53.226479 -0.480571 1,175 204 125 -704
2018-11-15 14:34:50 GMT 53.231049 -0.477199 1,325 204 125 -704
2018-11-15 14:34:45 GMT 53.233788 -0.475239 1,325 204 124 -704
2018-11-15 14:34:41 GMT 53.235416 -0.474028 1,400 204 122 -640
2018-11-15 14:34:33 GMT 53.240067 -0.470529 1,475 205 119 -704
2018-11-15 14:34:28 GMT 53.242126 -0.469038 1,550 205 118 -704
2018-11-15 14:34:23 GMT 53.244587 -0.467161 1,575 205 117 -640
2018-11-15 14:34:18 GMT 53.247116 -0.465271 1,850 205 113 -512
2018-11-15 14:34:13 GMT 53.251850 -0.461668 1,700 205 113 -512
2018-11-15 14:34:08 GMT 53.251850 -0.461668 1,725 205 113 -512
2018-11-15 14:34:03 GMT 53.255760 -0.458679 1,825 205 114 -640
2018-11-15 14:33:57 GMT 53.257370 -0.457502 1,825 205 114 -640
2018-11-15 14:33:53 GMT 53.259438 -0.455933 1,875 204 115 -768
2018-11-15 14:33:48 GMT 53.261856 -0.454128 2,050 205 123 64
2018-11-15 14:33:42 GMT 53.264374 -0.452323 2,075 204 119 -704
2018-11-15 14:33:38 GMT 53.266937 -0.450518 2,075 203 120 -384
2018-11-15 14:33:35 GMT 53.268768 -0.449184 2,100 204 120 0
2018-11-15 14:33:30 GMT 53.270554 -0.447928 2,100 204 121 0
2018-11-15 14:33:25 GMT 53.273216 -0.445996 2,100 204 122 0
2018-11-15 14:33:22 GMT 53.274940 -0.444785 2,100 205 122 64
2018-11-15 14:33:19 GMT 53.276802 -0.443411 2,100 204 123 0
2018-11-15 14:33:16 GMT 53.279781 -0.441230 2,075 205 123 64
2018-11-15 14:33:13 GMT 53.279781 -0.441230 2,075 205 122 64
2018-11-15 14:33:10 GMT 53.281265 -0.440159 2,075 206 135 0
2018-11-15 14:33:07 GMT 53.282482 -0.439211 2,075 205 122 64
2018-11-15 14:33:03 GMT 53.284901 -0.437353 2,075 205 121 0
2018-11-15 14:32:59 GMT 53.286625 -0.435980 2,075 205 122 -192
2018-11-15 14:32:56 GMT 53.288818 -0.434274 2,075 206 124 0
2018-11-15 14:32:53 GMT 53.290100 -0.433254 2,075 206 127 -64
2018-11-15 14:32:48 GMT 53.292847 -0.431135 2,075 206 130 64
2018-11-15 14:32:45 GMT 53.293991 -0.430272 2,075 206 131 0
2018-11-15 14:32:42 GMT 53.296074 -0.428548 2,075 206 134 -64
2018-11-15 14:32:37 GMT 53.298660 -0.426505 2,075 206 135 0
2018-11-15 14:32:34 GMT 53.300400 -0.425092 2,075 206 135 0
2018-11-15 14:32:31 GMT 53.305103 -0.421439 2,075 205 135 64
2018-11-15 14:32:26 GMT 53.305103 -0.421439 2,075 205 136 64
2018-11-15 14:32:23 GMT 53.307358 -0.419756 2,075 204 135 64
2018-11-15 14:32:18 GMT 53.310150 -0.417716 2,075 200 137 0
2018-11-15 14:32:14 GMT 53.311890 -0.416539 2,075 200 139 0
2018-11-15 14:32:10 GMT 53.313995 -0.415219 2,075 201 134 -64
2018-11-15 14:32:07 GMT 53.315998 -0.413926 2,075 201 135 -64
2018-11-15 14:32:04 GMT 53.317768 -0.412876 2,075 200 136 0
2018-11-15 14:32:00 GMT 53.320095 -0.411503 2,075 200 137 0
2018-11-15 14:31:57 GMT 53.321587 -0.410614 2,075 200 137 0
2018-11-15 14:31:54 GMT 53.323471 -0.409555 2,075 200 137 0
2018-11-15 14:31:49 GMT 53.326241 -0.407948 2,075 199 138 0
2018-11-15 14:31:46 GMT 53.328323 -0.406808 2,075 199 139 0
2018-11-15 14:31:43 GMT 53.330521 -0.405552 2,075 200 139 0
2018-11-15 14:31:40 GMT 53.332672 -0.404297 2,075 202 140 0
2018-11-15 14:31:37 GMT 53.336563 -0.401707 2,075 210 141 64
2018-11-15 14:31:32 GMT 53.336563 -0.401707 2,075 205 140 0
2018-11-15 14:31:29 GMT 53.340393 -0.398416 2,075 248 150 0
2018-11-15 14:31:23 GMT 53.342102 -0.396449 2,075 220 143 64
2018-11-15 14:31:18 GMT 53.344345 -0.393154 2,075 248 150 0
2018-11-15 14:31:15 GMT 53.345627 -0.390407 2,075 248 150 0
2018-11-15 14:31:12 GMT 53.346542 -0.387582 2,075 246 149 0
2018-11-15 14:31:06 GMT 53.348351 -0.380482 2,075 248 150 0
2018-11-15 14:31:02 GMT 53.349422 -0.376282 2,075 248 150 0
2018-11-15 14:30:57 GMT 53.350571 -0.371652 2,075 248 151 0
2018-11-15 14:30:54 GMT 53.351566 -0.367719 2,075 248 151 0
2018-11-15 14:30:51 GMT 53.352356 -0.364589 2,075 248 151 0
2018-11-15 14:30:48 GMT 53.353363 -0.360587 2,075 248 151 0
2018-11-15 14:30:45 GMT 53.353939 -0.358348 2,075 248 151 64
2018-11-15 14:30:41 GMT 53.355194 -0.353446 2,075 247 153 -64
2018-11-15 14:30:35 GMT 53.356750 -0.347246 2,075 248 154 0
2018-11-15 14:30:31 GMT 53.357990 -0.342434 2,075 248 154 -64
2018-11-15 14:30:24 GMT 53.359863 -0.335005 2,100 248 155 0
2018-11-15 14:30:21 GMT 53.360687 -0.331552 2,100 250 156 -64
2018-11-15 14:30:18 GMT 53.361328 -0.328727 2,100 253 157 -64
2018-11-15 14:30:14 GMT 53.362198 -0.323547 2,100 257 159 -64
2018-11-15 14:30:09 GMT 53.362968 -0.318038 2,100 257 159 0
2018-11-15 14:30:04 GMT 53.363937 -0.311462 3,750 272 166 64
2018-11-15 14:29:59 GMT 53.364784 -0.305517 2,100 257 160 -64
2018-11-15 14:29:55 GMT 53.365578 -0.300104 2,100 257 160 -64
2018-11-15 14:29:52 GMT 53.365997 -0.297180 3,675 272 166 64
2018-11-15 14:29:49 GMT 53.367252 -0.286614 2,125 285 172 64
2018-11-15 14:29:43 GMT 53.367252 -0.286614 2,100 291 175 64
2018-11-15 14:29:39 GMT 53.367393 -0.280717 2,100 281 170 0
2018-11-15 14:29:33 GMT 53.366226 -0.273089 2,100 344 195 64
2018-11-15 14:29:29 GMT 53.364738 -0.268842 2,100 307 182 64
2018-11-15 14:29:25 GMT 53.362473 -0.264692 2,100 332 191 128
2018-11-15 14:29:22 GMT 53.360550 -0.262181 2,075 344 195 64
2018-11-15 14:29:18 GMT 53.356358 -0.258825 2,075 347 197 64
2018-11-15 14:29:14 GMT 53.354031 -0.257856 2,075 353 198 64
2018-11-15 14:29:11 GMT 53.351349 -0.257472 2,075 1 201 64
2018-11-15 14:29:07 GMT 53.347050 -0.258259 2,075 28 204 64
2018-11-15 14:29:01 GMT 53.341511 -0.261895 2,100 28 204 0
2018-11-15 14:28:58 GMT 53.339767 -0.263593 2,100 29 205 0
2018-11-15 14:28:55 GMT 53.337227 -0.265934 2,075 29 205 0
2018-11-15 14:28:51 GMT 53.333633 -0.269244 2,075 29 205 0
2018-11-15 14:28:48 GMT 53.331207 -0.271519 2,075 29 205 0
2018-11-15 14:28:45 GMT 53.327778 -0.274739 2,075 29 205 0
2018-11-15 14:28:40 GMT 53.324192 -0.278051 2,075 29 208 -64
2018-11-15 14:28:37 GMT 53.322235 -0.279837 2,075 29 206 0
2018-11-15 14:28:34 GMT 53.319210 -0.282736 2,075 29 206 64
2018-11-15 14:28:31 GMT 53.316231 -0.285483 2,075 29 206 64
2018-11-15 14:28:28 GMT 53.314137 -0.287422 2,075 29 206 64
2018-11-15 14:28:25 GMT 53.311844 -0.289568 2,075 29 207 64
2018-11-15 14:28:20 GMT 53.307495 -0.293649 2,075 29 207 64
2018-11-15 14:28:16 GMT 53.304932 -0.296082 2,075 29 207 0
2018-11-15 14:28:13 GMT 53.301846 -0.298974 2,075 29 208 0
2018-11-15 14:28:08 GMT 53.294220 -0.306126 2,100 29 208 0
2018-11-15 14:28:04 GMT 53.294220 -0.306126 2,075 29 205 1088
2018-11-15 14:28:00 GMT 53.291000 -0.309152 2,075 29 208 0
2018-11-15 14:27:56 GMT 53.287975 -0.311979 2,100 29 207 192
2018-11-15 14:27:53 GMT 53.280853 -0.318682 2,075 29 205 960
2018-11-15 14:27:49 GMT 53.280853 -0.318682 1,650 29 206 704
2018-11-15 14:27:46 GMT 53.279221 -0.320219 2,050 29 205 896
2018-11-15 14:27:43 GMT 53.276871 -0.322370 1,975 29 202 768
2018-11-15 14:27:36 GMT 53.270966 -0.327942 1,800 28 200 576
2018-11-15 14:27:33 GMT 53.268471 -0.330236 1,800 29 197 512
2018-11-15 14:27:28 GMT 53.264465 -0.333984 1,650 29 197 512
2018-11-15 14:27:25 GMT 53.262047 -0.336214 1,700 28 197 576
2018-11-15 14:27:22 GMT 53.260044 -0.338072 1,725 28 196 576
2018-11-15 14:27:16 GMT 53.255219 -0.342538 1,650 29 196 192
2018-11-15 14:27:12 GMT 53.251648 -0.345834 1,650 29 196 128
2018-11-15 14:27:07 GMT 53.247662 -0.349543 1,650 29 195 64
2018-11-15 14:27:04 GMT 53.244827 -0.352190 1,625 29 195 0
2018-11-15 14:27:01 GMT 53.243610 -0.353340 1,625 28 193 0
2018-11-15 14:26:57 GMT 53.239746 -0.356813 1,625 28 194 -64
2018-11-15 14:26:51 GMT 53.234951 -0.361256 1,650 28 193 0
2018-11-15 14:26:46 GMT 53.231041 -0.364811 1,650 28 192 0
2018-11-15 14:26:43 GMT 53.222534 -0.372515 1,625 28 191 0
2018-11-15 14:26:35 GMT 53.222534 -0.372515 1,650 28 190 64
2018-11-15 14:26:32 GMT 53.220749 -0.374163 1,625 28 187 0
2018-11-15 14:26:25 GMT 53.215439 -0.379028 1,625 28 187 0
2018-11-15 14:26:22 GMT 53.212692 -0.381461 1,625 28 187 -64
2018-11-15 14:26:14 GMT 53.206650 -0.386876 1,625 28 188 0
2018-11-15 14:26:11 GMT 53.204693 -0.388641 1,625 28 188 0
2018-11-15 14:26:07 GMT 53.201481 -0.391469 1,625 28 189 0
2018-11-15 14:26:04 GMT 53.199509 -0.393232 1,625 28 189 64
2018-11-15 14:25:59 GMT 53.195244 -0.397043 1,625 28 189 0
2018-11-15 14:25:55 GMT 53.188351 -0.403101 1,625 28 189 128
2018-11-15 14:25:50 GMT 53.188351 -0.403101 1,625 28 189 128
2018-11-15 14:25:41 GMT 53.180511 -0.410104 1,600 28 191 128
2018-11-15 14:25:35 GMT 53.176716 -0.413522 1,575 28 193 64
2018-11-15 14:25:29 GMT 53.171585 -0.418187 1,575 28 193 0
2018-11-15 14:25:24 GMT 53.168381 -0.421090 1,575 29 193 0
2018-11-15 14:25:19 GMT 53.158421 -0.430163 1,575 28 193 0
2018-11-15 14:25:12 GMT 53.158421 -0.430163 1,575 28 194 0
2018-11-15 14:25:07 GMT 53.154694 -0.433637 1,575 29 194 0
2018-11-15 14:25:01 GMT 53.149899 -0.438080 1,575 29 194 0
2018-11-15 14:24:57 GMT 53.147095 -0.440630 1,575 28 194 64
2018-11-15 14:24:51 GMT 53.141464 -0.445888 1,575 29 193 64
2018-11-15 14:24:48 GMT 53.139240 -0.447935 1,575 29 193 -64
2018-11-15 14:24:41 GMT 53.134415 -0.452401 1,575 28 194 0
2018-11-15 14:24:35 GMT 53.129471 -0.456874 1,575 28 194 -64
2018-11-15 14:24:29 GMT 53.125042 -0.460941 1,575 28 193 0
2018-11-15 14:24:25 GMT 53.122009 -0.463702 1,575 28 192 0
2018-11-15 14:24:22 GMT 53.115498 -0.469666 1,575 28 192 0
2018-11-15 14:24:18 GMT 53.115498 -0.469666 1,575 28 192 -64
2018-11-15 14:24:14 GMT 53.113544 -0.471443 1,575 28 192 0
2018-11-15 14:24:10 GMT 53.110237 -0.474512 1,575 28 194 0
2018-11-15 14:24:04 GMT 53.101997 -0.482106 1,575 29 193 -64
2018-11-15 14:24:00 GMT 53.101997 -0.482106 1,600 29 194 -64
2018-11-15 14:23:57 GMT 53.099205 -0.484772 1,600 29 193 0
2018-11-15 14:23:54 GMT 53.097202 -0.486630 1,600 29 192 0
2018-11-15 14:23:50 GMT 53.094223 -0.489426 1,600 29 191 64
2018-11-15 14:23:43 GMT 53.089233 -0.494156 1,575 29 191 0
2018-11-15 14:23:39 GMT 53.084518 -0.498581 1,575 29 192 -64
2018-11-15 14:23:35 GMT 53.082539 -0.500427 1,575 29 193 -64
2018-11-15 14:23:32 GMT 53.079792 -0.502938 1,575 28 193 64
2018-11-15 14:23:28 GMT 53.077091 -0.505293 1,575 24 194 128
2018-11-15 14:23:24 GMT 53.074345 -0.507254 1,575 17 195 0
2018-11-15 14:23:20 GMT 53.069824 -0.509415 1,575 13 195 64
2018-11-15 14:23:17 GMT 53.068405 -0.509872 1,575 10 196 128
2018-11-15 14:23:07 GMT 53.059433 -0.512466 1,550 9 196 -192
2018-11-15 14:23:01 GMT 53.053211 -0.514160 1,575 9 195 128
2018-11-15 14:22:57 GMT 53.050232 -0.515060 1,550 9 194 -64
2018-11-15 14:22:53 GMT 53.046459 -0.516122 1,575 9 193 0
2018-11-15 14:22:49 GMT 53.043297 -0.516907 1,575 8 193 -64
2018-11-15 14:22:46 GMT 53.040665 -0.517578 1,575 9 195 0
2018-11-15 14:22:39 GMT 53.033936 -0.519257 1,575 6 196 64
2018-11-15 14:22:36 GMT 53.030819 -0.519653 1,575 1 195 192
2018-11-15 14:22:30 GMT 53.026211 -0.519026 1,550 349 190 -128
2018-11-15 14:22:26 GMT 53.022675 -0.516968 1,550 334 184 64
2018-11-15 14:22:20 GMT 53.018063 -0.511021 1,550 306 174 0
2018-11-15 14:22:16 GMT 53.016586 -0.507431 1,550 299 172 64
2018-11-15 14:22:10 GMT 53.015270 -0.500741 1,550 277 165 0
2018-11-15 14:22:06 GMT 53.015270 -0.494934 1,550 258 162 64
2018-11-15 14:22:01 GMT 53.016109 -0.490069 1,550 244 160 -128
2018-11-15 14:21:56 GMT 53.018578 -0.484183 1,550 223 156 -64
2018-11-15 14:21:45 GMT 53.024963 -0.478134 1,550 198 155 64
2018-11-15 14:21:34 GMT 53.032543 -0.475237 1,550 190 153 -128
2018-11-15 14:21:29 GMT 53.036407 -0.474295 1,550 187 150 320
2018-11-15 14:21:24 GMT 53.039932 -0.473557 1,550 187 150 384
2018-11-15 14:21:19 GMT 53.043297 -0.472961 1,525 187 151 -256
2018-11-15 14:21:10 GMT 53.054352 -0.470581 1,550 190 148 0
2018-11-15 14:21:03 GMT 53.054352 -0.470581 1,575 190 148 128
2018-11-15 14:20:59 GMT 53.056747 -0.469901 1,550 170 152 384
2018-11-15 14:20:52 GMT 53.062271 -0.470657 1,500 156 157 128
2018-11-15 14:20:49 GMT 53.063732 -0.471863 1,525 140 161 192
2018-11-15 14:20:41 GMT 53.067398 -0.479507 1,500 103 172 -384
2018-11-15 14:20:37 GMT 53.067902 -0.484772 1,525 86 177 -128
2018-11-15 14:20:31 GMT 53.066433 -0.493286 1,525 37 189 64
2018-11-15 14:20:27 GMT 53.064339 -0.497838 1,575 12 189 64
2018-11-15 14:20:22 GMT 53.061035 -0.501785 1,525 20 190 -128
2018-11-15 14:20:18 GMT 53.052338 -0.506134 1,600 12 189 64
2018-11-15 14:20:08 GMT 53.049454 -0.507126 1,550 11 189 -128
2018-11-15 14:20:01 GMT 53.042736 -0.509373 1,575 11 186 -256
2018-11-15 14:19:58 GMT 53.037552 -0.511093 1,575 10 184 64
2018-11-15 14:19:47 GMT 53.022999 -0.515259 1,575 9 184 64
2018-11-15 14:19:38 GMT 53.022999 -0.515259 1,575 5 183 128
2018-11-15 14:19:33 GMT 53.020157 -0.515518 1,575 0 182 128
2018-11-15 14:19:30 GMT 53.016769 -0.514832 1,575 332 175 0
2018-11-15 14:19:27 GMT 53.014526 -0.513611 1,550 335 176 64
2018-11-15 14:19:16 GMT 53.006973 -0.501709 1,550 300 165 -64
2018-11-15 14:19:09 GMT 53.006008 -0.496425 1,550 280 160 0
2018-11-15 14:19:06 GMT 53.006145 -0.488499 1,550 247 153 -64
2018-11-15 14:18:58 GMT 53.007172 -0.483634 1,575 110 166 -64
2018-11-15 14:18:55 GMT 53.007961 -0.481515 1,575 110 166 -64
2018-11-15 14:18:49 GMT 53.011593 -0.475865 1,550 210 151 64
2018-11-15 14:18:43 GMT 53.015781 -0.473118 1,550 192 154 64
2018-11-15 14:18:35 GMT 53.020996 -0.471392 1,550 192 154 64
2018-11-15 14:18:27 GMT 53.026062 -0.469666 1,525 192 154 0
2018-11-15 14:18:24 GMT 53.028446 -0.468802 1,525 193 153 -192
2018-11-15 14:18:18 GMT 53.032543 -0.467311 1,550 193 149 256
2018-11-15 14:18:13 GMT 53.035755 -0.466134 1,575 193 150 -64
2018-11-15 14:18:05 GMT 53.041107 -0.464172 1,575 193 150 128
2018-11-15 14:18:02 GMT 53.046696 -0.462211 1,550 192 153 64
2018-11-15 14:17:54 GMT 53.049545 -0.461197 1,550 192 152 -64
2018-11-15 14:17:49 GMT 53.054901 -0.459747 1,575 142 159 -192
2018-11-15 14:17:42 GMT 53.057961 -0.460563 1,600 157 155 -128
2018-11-15 14:17:37 GMT 53.061172 -0.463409 1,600 138 160 -128
2018-11-15 14:17:32 GMT 53.063171 -0.466762 1,625 117 164 -64
2018-11-15 14:17:27 GMT 53.064880 -0.472260 1,625 117 164 -64
2018-11-15 14:17:19 GMT 53.065361 -0.483712 1,625 74 176 128
2018-11-15 14:17:09 GMT 53.062592 -0.494537 1,625 52 181 64
2018-11-15 14:17:05 GMT 53.060120 -0.499115 1,625 23 186 128
2018-11-15 14:17:02 GMT 53.057419 -0.502396 1,600 28 186 128
2018-11-15 14:16:59 GMT 53.055542 -0.503998 1,600 21 186 64
2018-11-15 14:16:55 GMT 53.052612 -0.505676 1,600 11 185 -64
2018-11-15 14:16:51 GMT 53.049133 -0.506973 1,600 11 185 0
2018-11-15 14:16:48 GMT 53.046600 -0.507882 1,600 11 185 -64
2018-11-15 14:16:41 GMT 53.040665 -0.509872 1,600 11 185 256
2018-11-15 14:16:37 GMT 53.036453 -0.511246 1,575 10 186 256
2018-11-15 14:16:30 GMT 53.031876 -0.512695 1,550 10 186 192
2018-11-15 14:16:26 GMT 53.028400 -0.513611 1,550 6 186 -384
2018-11-15 14:16:21 GMT 53.022675 -0.514709 1,575 357 182 -128
2018-11-15 14:16:14 GMT 53.017834 -0.513375 1,575 340 176 192
2018-11-15 14:16:10 GMT 53.014805 -0.511335 1,575 329 174 128
2018-11-15 14:16:03 GMT 53.010708 -0.506077 1,550 223 152 -256
2018-11-15 14:16:00 GMT 53.008896 -0.502014 1,550 295 166 -128
2018-11-15 14:15:56 GMT 53.007614 -0.497284 1,550 285 163 -128
2018-11-15 14:15:52 GMT 53.007172 -0.493679 1,550 275 160 0
2018-11-15 14:15:49 GMT 53.007111 -0.489731 1,550 265 157 128
2018-11-15 14:15:43 GMT 53.008301 -0.482254 1,550 248 154 128
2018-11-15 14:15:39 GMT 53.009686 -0.478612 1,550 231 152 -192
2018-11-15 14:15:32 GMT 53.013474 -0.473633 1,575 212 151 -320
2018-11-15 14:15:28 GMT 53.015736 -0.472255 1,600 196 151 -64
2018-11-15 14:15:23 GMT 53.019463 -0.471000 1,600 109 166 -256
2018-11-15 14:15:19 GMT 53.022533 -0.469979 1,575 192 151 0
2018-11-15 14:15:13 GMT 53.026955 -0.468567 1,575 190 150 256
2018-11-15 14:15:09 GMT 53.029984 -0.467782 1,650 189 156 -192
2018-11-15 14:15:02 GMT 53.034172 -0.466527 1,550 191 152 128
2018-11-15 14:14:58 GMT 53.036964 -0.465742 1,550 191 152 256
2018-11-15 14:14:52 GMT 53.041016 -0.464565 1,525 189 154 64
2018-11-15 14:14:48 GMT 53.044281 -0.463715 1,500 189 155 -128
2018-11-15 14:14:40 GMT 53.049408 -0.462418 1,525 189 155 -704
2018-11-15 14:14:37 GMT 53.051537 -0.462132 1,575 82 175 384
2018-11-15 14:14:27 GMT 53.058151 -0.466003 1,625 143 158 -64
2018-11-15 14:14:20 GMT 53.062775 -0.478668 1,650 103 168 128
2018-11-15 14:14:07 GMT 53.062660 -0.489833 1,600 73 179 256
2018-11-15 14:13:56 GMT 53.054466 -0.506234 1,550 21 188 -320
2018-11-15 14:13:47 GMT 53.051491 -0.508118 1,575 11 187 -64
2018-11-15 14:13:41 GMT 53.045902 -0.510158 1,600 11 187 -128
2018-11-15 14:13:37 GMT 53.041992 -0.511414 1,600 10 186 128
2018-11-15 14:13:30 GMT 53.036774 -0.513000 1,600 11 186 192
2018-11-15 14:13:25 GMT 53.032776 -0.514317 1,575 10 187 128
2018-11-15 14:13:20 GMT 53.028488 -0.515671 1,575 8 186 128
2018-11-15 14:13:15 GMT 53.024231 -0.516815 1,550 8 185 128
2018-11-15 14:13:09 GMT 53.019230 -0.517535 1,550 357 185 128
2018-11-15 14:13:04 GMT 53.014984 -0.516434 1,525 341 182 -192
2018-11-15 14:12:59 GMT 53.011276 -0.513535 1,550 325 176 -192
2018-11-15 14:12:55 GMT 53.006012 -0.503693 1,575 310 171 -128
2018-11-15 14:12:49 GMT 53.006012 -0.503693 1,575 294 166 -128
2018-11-15 14:12:43 GMT 53.004776 -0.496063 1,600 273 159 0
2018-11-15 14:12:37 GMT 53.006607 -0.483627 1,575 230 152 64
2018-11-15 14:12:32 GMT 53.006752 -0.483163 1,575 239 153 64
2018-11-15 14:12:29 GMT 53.007980 -0.480347 1,575 230 152 64
2018-11-15 14:12:22 GMT 53.011547 -0.475551 1,550 193 154 -64
2018-11-15 14:12:18 GMT 53.014107 -0.473903 1,550 197 154 0
2018-11-15 14:12:14 GMT 53.017273 -0.472804 1,550 191 151 0
2018-11-15 14:12:09 GMT 53.021183 -0.471470 1,575 191 153 -64
2018-11-15 14:12:04 GMT 53.024395 -0.470450 1,575 191 151 0
2018-11-15 14:11:58 GMT 53.028488 -0.469131 1,575 191 151 64
2018-11-15 14:11:53 GMT 53.031891 -0.468096 1,575 192 150 320
2018-11-15 14:11:48 GMT 53.035080 -0.467072 1,550 191 151 64
2018-11-15 14:11:44 GMT 53.042271 -0.465036 1,550 190 151 -128
2018-11-15 14:11:38 GMT 53.042271 -0.465036 1,550 189 151 0
2018-11-15 14:11:32 GMT 53.045883 -0.464096 1,550 41 186 128
2018-11-15 14:11:28 GMT 53.049820 -0.463943 1,575 166 154 -320
2018-11-15 14:11:22 GMT 53.053303 -0.465899 1,550 41 186 128
2018-11-15 14:11:19 GMT 53.054840 -0.467782 1,625 133 159 -64
2018-11-15 14:11:16 GMT 53.056183 -0.470123 1,625 125 161 192
2018-11-15 14:11:12 GMT 53.057774 -0.474452 1,600 111 166 576
2018-11-15 14:11:06 GMT 53.058975 -0.483932 1,550 92 175 128
2018-11-15 14:10:55 GMT 53.056797 -0.496425 1,550 62 185 -384
2018-11-15 14:10:49 GMT 53.052292 -0.503998 1,575 32 187 192
2018-11-15 14:10:45 GMT 53.050419 -0.505842 1,575 24 188 64
2018-11-15 14:10:41 GMT 53.046741 -0.508039 1,550 14 189 -64
2018-11-15 14:10:36 GMT 53.042084 -0.509687 1,575 10 189 -256
2018-11-15 14:10:26 GMT 53.033157 -0.512924 1,575 14 189 128
2018-11-15 14:10:19 GMT 53.024414 -0.516434 1,550 12 189 192
2018-11-15 14:10:15 GMT 53.024414 -0.516434 1,550 11 189 128
2018-11-15 14:10:08 GMT 53.018623 -0.518476 1,550 12 189 64
2018-11-15 14:10:04 GMT 53.015083 -0.519418 1,550 3 188 -320
2018-11-15 14:09:58 GMT 53.009949 -0.518417 1,575 338 181 -384
2018-11-15 14:09:53 GMT 53.006428 -0.515494 1,600 324 176 -128
2018-11-15 14:09:47 GMT 53.003082 -0.510101 1,600 307 170 -64
2018-11-15 14:09:43 GMT 53.001537 -0.505450 1,625 291 164 128
2018-11-15 14:09:38 GMT 53.000652 -0.499564 1,600 247 155 -64
2018-11-15 14:09:33 GMT 53.001026 -0.493051 1,575 254 156 192
2018-11-15 14:09:27 GMT 53.002762 -0.487061 1,575 236 154 -256
2018-11-15 14:09:22 GMT 53.005371 -0.482864 1,600 213 151 -128
2018-11-15 14:09:17 GMT 53.008575 -0.480423 1,625 196 151 -128
2018-11-15 14:09:12 GMT 53.012146 -0.479126 1,625 192 151 128
2018-11-15 14:09:05 GMT 53.016541 -0.477600 1,600 192 153 64
2018-11-15 14:09:01 GMT 53.023277 -0.475237 1,600 132 158 128
2018-11-15 14:08:56 GMT 53.023277 -0.475237 1,600 193 152 64
2018-11-15 14:08:51 GMT 53.026611 -0.474091 1,575 193 151 192
2018-11-15 14:08:42 GMT 53.032516 -0.471954 1,575 192 151 -64
2018-11-15 14:08:39 GMT 53.034988 -0.471191 1,575 192 151 -64
2018-11-15 14:08:35 GMT 53.037689 -0.470352 1,575 188 151 64
2018-11-15 14:08:30 GMT 53.040802 -0.469666 1,550 188 152 -128
2018-11-15 14:08:20 GMT 53.048264 -0.468369 1,600 180 152 -256
2018-11-15 14:08:15 GMT 53.051193 -0.468674 1,600 169 152 -192
2018-11-15 14:08:10 GMT 53.055313 -0.471725 1,625 143 156 0
2018-11-15 14:08:06 GMT 53.056747 -0.473668 1,625 132 158 128
2018-11-15 14:08:03 GMT 53.058380 -0.477042 1,600 107 165 -128
2018-11-15 14:07:58 GMT 53.059959 -0.483085 1,625 103 165 -128
2018-11-15 14:07:49 GMT 53.058006 -0.500663 1,625 44 181 192
2018-11-15 14:07:40 GMT 53.052979 -0.508652 1,600 29 182 0
2018-11-15 14:07:35 GMT 53.052979 -0.508652 1,600 17 181 192
2018-11-15 14:07:30 GMT 53.048767 -0.511703 1,600 15 182 128
2018-11-15 14:07:27 GMT 53.046787 -0.512512 1,600 11 182 -64
2018-11-15 14:07:17 GMT 53.038147 -0.514908 1,600 8 182 256
2018-11-15 14:07:14 GMT 53.035801 -0.515494 1,600 5 180 0
2018-11-15 14:07:10 GMT 53.031555 -0.516434 1,600 5 181 64
2018-11-15 14:07:06 GMT 53.028912 -0.516828 1,600 6 182 128
2018-11-15 14:07:03 GMT 53.026352 -0.517378 1,575 2 180 -192
2018-11-15 14:06:59 GMT 53.023132 -0.517883 1,575 2 180 -192
2018-11-15 14:06:53 GMT 53.018555 -0.517731 1,600 325 169 64
2018-11-15 14:06:49 GMT 53.014759 -0.516593 1,600 343 173 0
2018-11-15 14:06:46 GMT 53.011871 -0.514603 1,600 331 170 0
2018-11-15 14:06:38 GMT 53.007660 -0.508881 1,600 310 164 -64
2018-11-15 14:06:35 GMT 53.006378 -0.505920 1,600 200 155 -256
2018-11-15 14:06:27 GMT 53.004868 -0.496597 1,600 269 155 128
2018-11-15 14:06:22 GMT 53.005493 -0.490853 1,575 242 151 192
2018-11-15 14:06:17 GMT 53.007385 -0.485535 1,575 215 153 128
2018-11-15 14:06:14 GMT 53.008804 -0.483398 1,550 198 154 -320
2018-11-15 14:06:07 GMT 53.013382 -0.479736 1,550 195 155 -320
2018-11-15 14:06:03 GMT 53.019646 -0.477591 1,575 190 153 -192
2018-11-15 14:05:58 GMT 53.019646 -0.477591 1,600 190 152 -64
2018-11-15 14:05:53 GMT 53.023140 -0.476728 1,600 188 151 0
2018-11-15 14:05:48 GMT 53.027252 -0.475769 1,600 189 150 192
2018-11-15 14:05:40 GMT 53.031750 -0.474766 1,575 188 150 256
2018-11-15 14:05:36 GMT 53.034309 -0.474217 1,575 188 151 128
2018-11-15 14:05:31 GMT 53.038082 -0.473432 1,550 175 154 -64
2018-11-15 14:05:26 GMT 53.041294 -0.472883 1,550 185 153 64
2018-11-15 14:05:21 GMT 53.045105 -0.472565 1,550 175 154 -64
2018-11-15 14:05:16 GMT 53.048996 -0.473175 1,550 162 155 -256
2018-11-15 14:05:11 GMT 53.052326 -0.475473 1,625 128 160 -256
2018-11-15 14:05:05 GMT 53.055954 -0.481033 1,625 128 160 -192
2018-11-15 14:05:01 GMT 53.057281 -0.484772 1,625 112 162 192
2018-11-15 14:04:55 GMT 53.058472 -0.491714 1,600 96 168 576
2018-11-15 14:04:50 GMT 53.058331 -0.498152 1,550 76 178 512
2018-11-15 14:04:45 GMT 53.056686 -0.505447 1,500 59 185 64
2018-11-15 14:04:37 GMT 53.051907 -0.514003 1,525 42 188 -832
2018-11-15 14:04:34 GMT 53.050465 -0.515337 1,575 26 187 -256
2018-11-15 14:04:29 GMT 53.046276 -0.517848 1,600 9 184 0
2018-11-15 14:04:23 GMT 53.041672 -0.519028 1,600 5 183 -128
2018-11-15 14:04:18 GMT 53.037476 -0.519732 1,600 5 183 0
2018-11-15 14:04:13 GMT 53.033340 -0.520325 1,600 4 183 192
2018-11-15 14:04:09 GMT 53.029175 -0.520782 1,600 2 183 128
2018-11-15 14:04:06 GMT 53.027390 -0.520935 1,600 2 183 192
2018-11-15 14:04:02 GMT 53.023865 -0.521240 1,575 3 182 64
2018-11-15 14:03:56 GMT 53.018463 -0.521698 1,575 0 181 -64
2018-11-15 14:03:52 GMT 53.014618 -0.521011 1,575 346 178 -64
2018-11-15 14:03:47 GMT 53.011139 -0.518875 1,575 329 174 -256
2018-11-15 14:03:41 GMT 53.007843 -0.514755 1,600 315 169 -256
2018-11-15 14:03:36 GMT 53.005215 -0.508275 1,625 292 162 -192
2018-11-15 14:03:31 GMT 53.004318 -0.503387 1,650 202 160 -320
2018-11-15 14:03:25 GMT 53.004501 -0.496216 1,625 247 155 704
2018-11-15 14:03:22 GMT 53.005417 -0.491867 1,575 240 157 576
2018-11-15 14:03:15 GMT 53.008209 -0.485306 1,525 205 161 -384
2018-11-15 14:03:11 GMT 53.010429 -0.482300 1,500 202 160 -320
2018-11-15 14:03:07 GMT 53.013107 -0.480042 1,525 196 160 -192
2018-11-15 14:03:00 GMT 53.017639 -0.478210 1,550 186 155 384
2018-11-15 14:02:53 GMT 53.022995 -0.477295 1,550 186 155 384
2018-11-15 14:02:50 GMT 53.025330 -0.476913 1,550 186 155 256
2018-11-15 14:02:46 GMT 53.028259 -0.476493 1,525 185 152 -192
2018-11-15 14:02:40 GMT 53.032310 -0.475943 1,550 184 149 64
2018-11-15 14:02:36 GMT 53.035522 -0.475630 1,550 184 144 192
2018-11-15 14:02:29 GMT 53.039246 -0.475237 1,525 183 142 -256
2018-11-15 14:02:26 GMT 53.041443 -0.475082 1,525 183 142 -256
2018-11-15 14:02:19 GMT 53.046089 -0.474923 1,525 181 144 -192
2018-11-15 14:02:15 GMT 53.049133 -0.474854 1,550 183 144 -320
2018-11-15 14:02:09 GMT 53.052795 -0.474548 1,600 13 170 192
2018-11-15 14:02:02 GMT 53.057400 -0.475002 1,575 165 145 448
2018-11-15 14:01:57 GMT 53.060623 -0.476685 1,525 156 148 64
2018-11-15 14:01:53 GMT 53.062988 -0.479396 1,525 119 154 -64
2018-11-15 14:01:47 GMT 53.065224 -0.485360 1,525 104 158 -64
2018-11-15 14:01:37 GMT 53.064377 -0.498199 1,500 62 169 256
2018-11-15 14:01:26 GMT 53.058472 -0.508804 1,500 25 173 128
2018-11-15 14:01:18 GMT 53.053116 -0.512009 1,475 13 170 192
2018-11-15 14:01:15 GMT 53.049774 -0.513153 1,450 10 170 0
2018-11-15 14:01:08 GMT 53.045345 -0.514396 1,475 8 174 -704
2018-11-15 14:01:03 GMT 53.040619 -0.515289 1,600 2 175 -704
2018-11-15 14:00:58 GMT 53.036873 -0.515494 1,600 0 175 -256
2018-11-15 14:00:52 GMT 53.028122 -0.515518 1,650 0 181 576
2018-11-15 14:00:47 GMT 53.028122 -0.515518 1,625 0 180 640
2018-11-15 14:00:44 GMT 53.025192 -0.515518 1,600 230 158 -576
2018-11-15 14:00:37 GMT 53.019882 -0.515366 1,525 0 183 512
2018-11-15 14:00:31 GMT 53.014618 -0.515594 1,500 2 177 192
2018-11-15 14:00:27 GMT 53.011185 -0.515823 1,475 359 179 -448
2018-11-15 14:00:21 GMT 53.005821 -0.514396 1,500 332 174 -128
2018-11-15 14:00:17 GMT 53.003494 -0.512161 1,525 316 170 512
2018-11-15 14:00:09 GMT 53.000290 -0.503540 1,425 282 167 640
2018-11-15 14:00:06 GMT 53.000050 -0.500349 1,400 268 167 -320
2018-11-15 13:59:59 GMT 53.001350 -0.491717 1,450 241 160 -640
2018-11-15 13:59:56 GMT 53.002750 -0.488264 1,475 228 157 -384
2018-11-15 13:59:50 GMT 53.005966 -0.483551 1,525 213 155 -128
2018-11-15 13:59:46 GMT 53.008621 -0.481262 1,525 201 156 -192
2018-11-15 13:59:39 GMT 53.013519 -0.479202 1,550 188 157 -64
2018-11-15 13:59:36 GMT 53.016109 -0.478768 1,550 185 158 64
2018-11-15 13:59:25 GMT 53.030773 -0.476179 1,525 187 160 320
2018-11-15 13:59:15 GMT 53.035583 -0.475006 1,525 188 161 -128
2018-11-15 13:59:08 GMT 53.035583 -0.475006 1,550 190 162 -192
2018-11-15 13:59:03 GMT 53.040455 -0.473668 1,550 190 162 -64
2018-11-15 13:59:00 GMT 53.041580 -0.473328 1,550 189 160 192
2018-11-15 13:58:55 GMT 53.046295 -0.472183 1,550 190 158 256
2018-11-15 13:58:48 GMT 53.050652 -0.470843 1,525 198 160 192
2018-11-15 13:58:44 GMT 53.053619 -0.469437 1,475 193 161 192
2018-11-15 13:58:38 GMT 53.057968 -0.467682 1,500 173 159 -448
2018-11-15 13:58:34 GMT 53.061356 -0.467682 1,475 169 158 -640
2018-11-15 13:58:23 GMT 53.067131 -0.474060 1,600 121 155 64
2018-11-15 13:58:11 GMT 53.069046 -0.488586 1,600 12 186 -192
2018-11-15 13:58:06 GMT 53.067966 -0.495013 1,600 66 175 64
2018-11-15 13:58:01 GMT 53.062893 -0.505763 1,575 48 181 64
2018-11-15 13:57:56 GMT 53.062893 -0.505763 1,575 33 183 0
2018-11-15 13:57:53 GMT 53.059937 -0.508728 1,575 21 186 -128
2018-11-15 13:57:49 GMT 53.058098 -0.510001 1,575 21 186 -128
2018-11-15 13:57:46 GMT 53.055176 -0.511169 1,575 7 185 -64
2018-11-15 13:57:42 GMT 53.049534 -0.512198 1,600 5 184 128
2018-11-15 13:57:35 GMT 53.045811 -0.512983 1,575 8 184 64
2018-11-15 13:57:32 GMT 53.040131 -0.514396 1,575 7 181 1280
2018-11-15 13:57:28 GMT 53.040131 -0.514396 1,575 7 181 1280
2018-11-15 13:57:22 GMT 53.034592 -0.515651 1,525 6 183 832
2018-11-15 13:57:19 GMT 53.032196 -0.516052 1,500 6 181 1344
2018-11-15 13:57:15 GMT 53.028816 -0.516750 1,425 4 183 1344
2018-11-15 13:57:10 GMT 53.016403 -0.515747 1,200 353 186 1152
2018-11-15 13:57:01 GMT 53.016403 -0.515747 1,100 343 186 1024
2018-11-15 13:56:58 GMT 53.014385 -0.514631 1,050 335 185 832
2018-11-15 13:56:50 GMT 53.009079 -0.508575 950 309 178 576
2018-11-15 13:56:45 GMT 53.006844 -0.503331 900 302 176 192
2018-11-15 13:56:40 GMT 53.005783 -0.496216 925 268 164 -192
2018-11-15 13:56:34 GMT 53.006516 -0.489731 950 259 162 -640
2018-11-15 13:56:29 GMT 53.008427 -0.484889 1,050 223 150 -448
2018-11-15 13:56:26 GMT 53.010056 -0.482771 1,075 209 147 64
2018-11-15 13:56:20 GMT 53.014847 -0.480499 1,075 183 148 0
2018-11-15 13:56:17 GMT 53.016994 -0.480338 1,075 182 150 -192
2018-11-15 13:56:09 GMT 53.021759 -0.480118 1,075 183 150 128
2018-11-15 13:56:03 GMT 53.025604 -0.479710 1,075 185 151 320
2018-11-15 13:55:58 GMT 53.029083 -0.479279 1,050 186 152 128
2018-11-15 13:55:55 GMT 53.031555 -0.478821 1,050 186 153 448
2018-11-15 13:55:49 GMT 53.036545 -0.478141 1,025 185 155 64
2018-11-15 13:55:45 GMT 53.039013 -0.477827 1,025 185 153 -64
2018-11-15 13:55:38 GMT 53.043854 -0.477199 1,025 187 151 -64
2018-11-15 13:55:34 GMT 53.046295 -0.476761 1,025 186 149 -64
2018-11-15 13:55:30 GMT 53.048767 -0.476379 1,025 187 145 128
2018-11-15 13:55:27 GMT 53.050793 -0.476022 1,025 186 144 128
2018-11-15 13:55:23 GMT 53.053722 -0.475708 1,025 177 142 320
2018-11-15 13:55:17 GMT 53.057354 -0.476964 975 150 146 0
2018-11-15 13:55:12 GMT 53.060192 -0.480809 1,000 125 151 -320
2018-11-15 13:55:06 GMT 53.061813 -0.488586 1,000 97 157 -128
2018-11-15 13:55:01 GMT 53.061729 -0.492972 1,025 78 163 -256
2018-11-15 13:54:57 GMT 53.060661 -0.498544 1,025 59 167 -128
2018-11-15 13:54:51 GMT 53.057217 -0.505450 1,075 15 172 -128
2018-11-15 13:54:47 GMT 53.055214 -0.507490 1,075 23 172 -128
2018-11-15 13:54:40 GMT 53.050232 -0.510178 1,100 9 172 192
2018-11-15 13:54:36 GMT 53.047207 -0.511021 1,100 9 172 192
2018-11-15 13:54:31 GMT 53.042366 -0.512355 1,075 10 174 192
2018-11-15 13:54:26 GMT 53.039387 -0.513297 1,075 12 177 128
2018-11-15 13:54:20 GMT 53.033844 -0.515518 1,050 13 178 64
2018-11-15 13:54:16 GMT 53.030914 -0.516593 1,050 11 180 256
2018-11-15 13:54:05 GMT 53.022125 -0.516739 1,025 343 185 0
2018-11-15 13:53:59 GMT 53.016907 -0.512238 1,025 315 185 64
2018-11-15 13:53:56 GMT 53.015179 -0.509138 1,025 307 184 -256
2018-11-15 13:53:48 GMT 53.012970 -0.499725 1,025 273 168 -192
2018-11-15 13:53:45 GMT 53.012897 -0.495248 1,050 261 162 -192
2018-11-15 13:53:38 GMT 53.014946 -0.486851 1,075 190 150 64
2018-11-15 13:53:35 GMT 53.015991 -0.485229 1,100 216 151 -64
2018-11-15 13:53:29 GMT 53.020020 -0.482254 1,100 190 150 64
2018-11-15 13:53:25 GMT 53.022392 -0.481594 1,100 190 150 64
2018-11-15 13:53:15 GMT 53.029678 -0.479584 1,075 191 154 320
2018-11-15 13:53:05 GMT 53.037506 -0.476685 1,050 200 157 448
2018-11-15 13:52:54 GMT 53.044041 -0.471235 1,000 218 156 -192
2018-11-15 13:52:47 GMT 53.047348 -0.466156 1,000 228 153 -64
2018-11-15 13:52:44 GMT 53.049133 -0.462112 1,000 242 152 -256
2018-11-15 13:52:36 GMT 53.050873 -0.454941 1,025 252 150 -384
2018-11-15 13:52:32 GMT 53.051674 -0.450596 1,075 254 146 192
2018-11-15 13:52:27 GMT 53.052841 -0.444412 1,025 253 149 576
2018-11-15 13:52:22 GMT 53.053894 -0.439148 1,000 252 155 -64
2018-11-15 13:52:17 GMT 53.055130 -0.433426 1,000 249 158 -320
2018-11-15 13:52:12 GMT 53.056274 -0.428238 1,025 250 159 -192
2018-11-15 13:52:06 GMT 53.057648 -0.420914 1,075 259 163 -640
2018-11-15 13:52:02 GMT 53.058151 -0.415573 1,125 265 164 448
2018-11-15 13:51:55 GMT 53.058563 -0.407750 1,075 270 171 -256
2018-11-15 13:51:52 GMT 53.058746 -0.402756 1,075 270 171 -256
2018-11-15 13:51:41 GMT 53.057053 -0.389175 1,100 298 178 0
2018-11-15 13:51:30 GMT 53.052109 -0.376434 1,100 306 183 -128
2018-11-15 13:51:21 GMT 53.045158 -0.360665 1,075 307 180 256
2018-11-15 13:51:09 GMT 53.041203 -0.352190 1,050 308 178 128
2018-11-15 13:51:01 GMT 53.037197 -0.343558 1,025 309 182 -64
2018-11-15 13:50:57 GMT 53.030640 -0.329437 1,050 308 185 0
2018-11-15 13:50:48 GMT 53.030640 -0.329437 1,075 310 191 -512
2018-11-15 13:50:44 GMT 53.028305 -0.324631 1,075 310 194 -704
2018-11-15 13:50:41 GMT 53.026016 -0.320053 1,125 309 196 -704
2018-11-15 13:50:36 GMT 53.023499 -0.314713 1,175 308 197 -768
2018-11-15 13:50:30 GMT 53.020294 -0.307541 1,275 306 196 -1344
2018-11-15 13:50:26 GMT 53.018391 -0.302909 1,350 301 193 -1408
2018-11-15 13:50:23 GMT 53.017319 -0.299911 1,400 297 191 -896
2018-11-15 13:50:19 GMT 53.015690 -0.294120 1,475 293 190 -128
2018-11-15 13:50:15 GMT 53.014069 -0.287247 1,475 290 192 -320
2018-11-15 13:50:09 GMT 53.012897 -0.280308 1,500 281 195 -64
2018-11-15 13:50:06 GMT 53.012337 -0.275364 1,500 278 195 -64
2018-11-15 13:50:02 GMT 53.012058 -0.270107 1,525 271 196 -128
2018-11-15 13:49:59 GMT 53.012146 -0.264587 1,525 267 197 192
2018-11-15 13:49:54 GMT 53.012787 -0.249557 1,500 266 200 -64
2018-11-15 13:49:49 GMT 53.012787 -0.249557 1,525 266 200 192
2018-11-15 13:49:44 GMT 53.013107 -0.242920 1,500 266 200 -448
2018-11-15 13:49:41 GMT 53.013317 -0.238089 1,525 265 199 -640
2018-11-15 13:49:38 GMT 53.013611 -0.233612 1,550 265 197 -832
2018-11-15 13:49:35 GMT 53.013885 -0.228500 1,625 267 192 -1344
2018-11-15 13:49:32 GMT 53.014023 -0.224686 1,625 267 192 -1344
2018-11-15 13:49:29 GMT 53.014206 -0.218201 1,725 269 193 -1280
2018-11-15 13:49:24 GMT 53.014435 -0.208435 2,000 268 193 -1344
2018-11-15 13:49:21 GMT 53.014435 -0.208435 1,875 267 194 -960
2018-11-15 13:49:18 GMT 53.014668 -0.203169 1,950 267 195 -1088
2018-11-15 13:49:14 GMT 53.014893 -0.197372 2,225 266 200 -1984
2018-11-15 13:49:10 GMT 53.015167 -0.191422 2,075 266 200 -1344
2018-11-15 13:49:07 GMT 53.015350 -0.187454 2,125 266 201 -1792
2018-11-15 13:49:04 GMT 53.015625 -0.181732 2,350 266 200 -1984
2018-11-15 13:49:01 GMT 53.015831 -0.177508 2,325 266 200 -1984
2018-11-15 13:48:57 GMT 53.016083 -0.171967 2,450 266 199 -1856
2018-11-15 13:48:53 GMT 53.016495 -0.164795 2,700 267 199 -1792
2018-11-15 13:48:49 GMT 53.016712 -0.159380 3,125 268 199 -1728
2018-11-15 13:48:46 GMT 53.016724 -0.154266 3,100 273 200 -1856
2018-11-15 13:48:43 GMT 53.016495 -0.149918 3,050 277 201 -1920
2018-11-15 13:48:40 GMT 53.016201 -0.145098 3,125 277 201 -1920
2018-11-15 13:48:36 GMT 53.015781 -0.138663 3,100 276 202 -1408
2018-11-15 13:48:32 GMT 53.015457 -0.133327 3,175 276 202 -1472
2018-11-15 13:48:29 GMT 53.015083 -0.127755 3,275 276 202 -1152
2018-11-15 13:48:26 GMT 53.014755 -0.121765 3,350 275 204 -1472
2018-11-15 13:48:23 GMT 53.014618 -0.118027 3,675 274 204 -1792
2018-11-15 13:48:20 GMT 53.014385 -0.113002 3,500 275 204 -1792
2018-11-15 13:48:15 GMT 53.014015 -0.104684 3,675 274 204 -1728
2018-11-15 13:48:12 GMT 53.013920 -0.101702 3,725 272 204 -1792
2018-11-15 13:48:08 GMT 53.013840 -0.096054 3,825 269 202 -1728
2018-11-15 13:48:02 GMT 53.014435 -0.087106 4,175 252 197 -2240
2018-11-15 13:47:59 GMT 53.015808 -0.080948 4,175 240 193 -2432
2018-11-15 13:47:51 GMT 53.019646 -0.072667 4,850 209 183 -2624
2018-11-15 13:47:47 GMT 53.022629 -0.069199 4,650 199 180 -2496
2018-11-15 13:47:42 GMT 53.026352 -0.067017 4,850 177 181 -192
2018-11-15 13:47:38 GMT 53.030167 -0.066467 5,025 175 182 -128
2018-11-15 13:47:35 GMT 53.033287 -0.066703 5,025 175 182 -128
2018-11-15 13:47:31 GMT 53.035767 -0.066986 5,025 175 182 -256
2018-11-15 13:47:28 GMT 53.041992 -0.067723 5,000 176 180 64
2018-11-15 13:47:23 GMT 53.041992 -0.067723 5,025 176 181 64
2018-11-15 13:47:20 GMT 53.045345 -0.068037 5,000 176 181 128
2018-11-15 13:47:15 GMT 53.048740 -0.068429 5,000 176 181 64
2018-11-15 13:47:11 GMT 53.052475 -0.068817 5,000 176 180 64
2018-11-15 13:47:08 GMT 53.054901 -0.069046 5,000 176 180 64
2018-11-15 13:47:00 GMT 53.061592 -0.069763 4,975 176 180 -128
2018-11-15 13:46:57 GMT 53.064148 -0.069962 4,975 176 180 64
2018-11-15 13:46:53 GMT 53.066940 -0.070267 5,000 176 179 0
2018-11-15 13:46:48 GMT 53.071320 -0.070626 5,000 176 179 -64
2018-11-15 13:46:45 GMT 53.075882 -0.071019 5,000 176 179 192
2018-11-15 13:46:39 GMT 53.078770 -0.071333 5,000 176 179 192
2018-11-15 13:46:36 GMT 53.083237 -0.071793 4,975 176 179 -256
2018-11-15 13:46:28 GMT 53.088364 -0.072327 5,000 176 179 320
2018-11-15 13:46:25 GMT 53.090313 -0.072510 4,975 176 181 192
2018-11-15 13:46:21 GMT 53.094269 -0.072937 4,975 177 183 -128
2018-11-15 13:46:18 GMT 53.096130 -0.073108 4,975 177 183 -128
2018-11-15 13:46:15 GMT 53.100815 -0.073451 5,000 177 183 -128
2018-11-15 13:46:12 GMT 53.103580 -0.073673 4,975 177 183 -128
2018-11-15 13:46:09 GMT 53.103580 -0.073673 4,975 177 184 -128
2018-11-15 13:46:06 GMT 53.106766 -0.073922 5,000 178 184 -128
2018-11-15 13:46:03 GMT 53.109650 -0.074001 5,000 178 184 -64
2018-11-15 13:45:58 GMT 53.113541 -0.074158 5,000 178 187 256
2018-11-15 13:45:55 GMT 53.115280 -0.074236 4,975 178 186 320
2018-11-15 13:45:52 GMT 53.118439 -0.074315 4,975 178 187 256
2018-11-15 13:45:49 GMT 53.122063 -0.074481 4,950 181 190 -64
2018-11-15 13:45:46 GMT 53.123737 -0.074562 4,950 181 190 -64
2018-11-15 13:45:43 GMT 53.126114 -0.074562 4,975 180 191 64
2018-11-15 13:45:39 GMT 53.129791 -0.074550 4,975 180 191 64
2018-11-15 13:45:34 GMT 53.133957 -0.074550 4,975 179 192 -384
2018-11-15 13:45:31 GMT 53.136635 -0.074723 5,000 177 192 -384
2018-11-15 13:45:27 GMT 53.140594 -0.075021 5,025 177 192 -128
2018-11-15 13:45:24 GMT 53.142746 -0.075178 5,025 177 192 -128
2018-11-15 13:45:21 GMT 53.145805 -0.075450 5,025 177 192 -64
2018-11-15 13:45:18 GMT 53.147964 -0.075649 5,025 176 192 128
2018-11-15 13:45:15 GMT 53.151577 -0.076016 5,025 176 193 64
2018-11-15 13:45:11 GMT 53.154190 -0.076355 5,025 176 193 64
2018-11-15 13:45:08 GMT 53.157349 -0.076662 5,025 175 193 192
2018-11-15 13:45:04 GMT 53.160934 -0.077066 5,000 175 194 128
2018-11-15 13:45:00 GMT 53.164051 -0.077470 5,000 176 200 -1664
2018-11-15 13:44:54 GMT 53.169731 -0.078278 4,975 175 195 192
2018-11-15 13:44:51 GMT 53.176758 -0.079180 4,950 176 192 -448
2018-11-15 13:44:46 GMT 53.176758 -0.079180 5,100 178 201 -1600
2018-11-15 13:44:43 GMT 53.179462 -0.079489 4,975 176 192 -576
2018-11-15 13:44:40 GMT 53.182526 -0.079886 4,975 176 195 -832
2018-11-15 13:44:37 GMT 53.185280 -0.080136 5,050 176 197 -1216
2018-11-15 13:44:32 GMT 53.189514 -0.080620 5,150 175 199 -1536
2018-11-15 13:44:29 GMT 53.192543 -0.080943 5,375 177 200 -1472
2018-11-15 13:44:22 GMT 53.198547 -0.081534 5,425 178 200 -1472
2018-11-15 13:44:19 GMT 53.201855 -0.081670 5,500 178 201 -1600
2018-11-15 13:44:14 GMT 53.205669 -0.081832 5,825 178 201 -1664
2018-11-15 13:44:11 GMT 53.208511 -0.081913 5,675 178 201 -1728
2018-11-15 13:44:08 GMT 53.211182 -0.082084 5,775 178 202 -1728
2018-11-15 13:44:05 GMT 53.214420 -0.082236 5,850 178 202 -1728
2018-11-15 13:44:02 GMT 53.217361 -0.082397 5,950 178 202 -1664
2018-11-15 13:43:59 GMT 53.220978 -0.082633 6,050 177 203 -1728
2018-11-15 13:43:54 GMT 53.225082 -0.082882 6,175 178 203 -1920
2018-11-15 13:43:51 GMT 53.230389 -0.083124 6,300 178 202 -1856
2018-11-15 13:43:45 GMT 53.233463 -0.083367 6,725 177 202 -1280
2018-11-15 13:43:41 GMT 53.237640 -0.083653 6,575 177 203 -1344
2018-11-15 13:43:38 GMT 53.240341 -0.083810 6,650 177 204 -1280
2018-11-15 13:43:34 GMT 53.247940 -0.084281 6,725 178 206 -1664
2018-11-15 13:43:30 GMT 53.247940 -0.084281 6,825 178 206 -1664
2018-11-15 13:43:27 GMT 53.250454 -0.084417 6,850 178 207 -1728
2018-11-15 13:43:23 GMT 53.253754 -0.084516 6,975 178 207 -1728
2018-11-15 13:43:20 GMT 53.257416 -0.084595 7,100 178 207 -1728
2018-11-15 13:43:14 GMT 53.262314 -0.084752 9,800 181 209 -1152
2018-11-15 13:43:11 GMT 53.266468 -0.084821 7,375 180 208 -1856
2018-11-15 13:43:08 GMT 53.269447 -0.084821 7,450 180 208 -1984
2018-11-15 13:43:04 GMT 53.272293 -0.084830 7,575 182 205 -2240
2018-11-15 13:43:01 GMT 53.278152 -0.084752 7,900 181 206 -2240
2018-11-15 13:42:58 GMT 53.280899 -0.084752 7,875 181 206 -2240
2018-11-15 13:42:55 GMT 53.280899 -0.084752 7,875 182 205 -2240
2018-11-15 13:42:52 GMT 53.283787 -0.084659 8,225 182 203 -1792
2018-11-15 13:42:49 GMT 53.286575 -0.084516 8,150 182 203 -1280
2018-11-15 13:42:46 GMT 53.288818 -0.084438 8,150 182 203 -1280
2018-11-15 13:42:43 GMT 53.292206 -0.084281 8,225 182 204 -960
2018-11-15 13:42:39 GMT 53.296188 -0.084202 8,375 180 210 -1152
2018-11-15 13:42:36 GMT 53.299622 -0.084124 8,375 181 209 -1152
2018-11-15 13:42:33 GMT 53.301334 -0.084094 8,400 180 210 -1216
2018-11-15 13:42:30 GMT 53.304825 -0.084175 8,450 179 212 -1728
2018-11-15 13:42:27 GMT 53.307758 -0.084175 8,675 179 210 -3456
2018-11-15 13:42:24 GMT 53.313675 -0.084281 9,800 188 175 -2752
2018-11-15 13:42:16 GMT 53.318279 -0.084417 9,175 178 202 -2816
2018-11-15 13:42:13 GMT 53.325165 -0.084595 9,325 179 190 -2816
2018-11-15 13:42:09 GMT 53.325165 -0.084595 9,425 182 185 -2816
2018-11-15 13:42:05 GMT 53.327866 -0.084359 9,700 193 168 -2304
2018-11-15 13:42:00 GMT 53.331688 -0.083367 9,750 200 155 256
2018-11-15 13:41:57 GMT 53.334621 -0.081994 9,950 198 157 -320
2018-11-15 13:41:53 GMT 53.336792 -0.080828 9,975 199 156 -192
2018-11-15 13:41:50 GMT 53.339088 -0.079570 10,025 199 155 -256
2018-11-15 13:41:47 GMT 53.341461 -0.078238 10,000 200 154 -256
2018-11-15 13:41:44 GMT 53.343155 -0.077218 10,025 200 155 -192
2018-11-15 13:41:41 GMT 53.344894 -0.076120 10,025 201 154 -128
2018-11-15 13:41:38 GMT 53.347469 -0.074562 10,025 198 159 64
2018-11-15 13:41:34 GMT 53.349983 -0.072946 10,025 201 154 192
2018-11-15 13:41:31 GMT 53.351749 -0.071815 10,025 201 154 192
2018-11-15 13:41:28 GMT 53.354095 -0.070391 10,025 200 154 256
2018-11-15 13:41:24 GMT 53.356567 -0.068978 10,000 200 155 256
2018-11-15 13:41:20 GMT 53.359177 -0.067566 9,975 198 158 0
2018-11-15 13:41:17 GMT 53.363483 -0.065272 9,975 199 157 -64
2018-11-15 13:41:11 GMT 53.365765 -0.063979 10,000 199 158 -64
2018-11-15 13:41:08 GMT 53.367554 -0.063014 10,000 199 158 -64
2018-11-15 13:41:05 GMT 53.370255 -0.061523 10,000 198 158 0
2018-11-15 13:41:01 GMT 53.371956 -0.060667 9,975 198 159 64
2018-11-15 13:40:58 GMT 53.374832 -0.059091 10,000 199 160 64
2018-11-15 13:40:55 GMT 53.376846 -0.057992 10,000 201 160 -256
2018-11-15 13:40:52 GMT 53.379364 -0.056423 10,000 203 159 -128
2018-11-15 13:40:49 GMT 53.380428 -0.055739 10,025 199 160 -64
2018-11-15 13:40:46 GMT 53.383118 -0.053833 10,025 201 159 -64
2018-11-15 13:40:43 GMT 53.385498 -0.052264 10,025 202 160 -128
2018-11-15 13:40:40 GMT 53.387146 -0.051165 10,025 197 160 -128
2018-11-15 13:40:37 GMT 53.389225 -0.049923 10,025 199 160 -64
2018-11-15 13:40:34 GMT 53.391769 -0.048497 10,050 198 160 -192
2018-11-15 13:40:30 GMT 53.394394 -0.047257 10,050 196 160 64
2018-11-15 13:40:27 GMT 53.396210 -0.046369 10,050 199 160 256
2018-11-15 13:40:23 GMT 53.398911 -0.044809 9,950 202 162 64
2018-11-15 13:40:20 GMT 53.401470 -0.043137 10,025 203 162 384
2018-11-15 13:40:16 GMT 53.403889 -0.041441 10,025 203 162 640
2018-11-15 13:40:13 GMT 53.406261 -0.039745 9,950 202 168 384
2018-11-15 13:40:07 GMT 53.410126 -0.037079 9,900 269 177 -64
2018-11-15 13:40:04 GMT 53.412231 -0.035313 9,875 221 172 192
2018-11-15 13:40:01 GMT 53.413925 -0.033273 9,875 225 173 128
2018-11-15 13:39:58 GMT 53.415573 -0.030134 9,850 233 175 -256
2018-11-15 13:39:54 GMT 53.417221 -0.024641 9,900 262 176 -64
2018-11-15 13:39:51 GMT 53.417576 -0.021326 9,900 266 176 0
2018-11-15 13:39:48 GMT 53.417358 -0.013654 9,900 282 176 192
2018-11-15 13:39:45 GMT 53.417084 -0.011693 9,900 293 177 576
2018-11-15 13:39:42 GMT 53.416580 -0.009260 9,875 293 177 640
2018-11-15 13:39:38 GMT 53.414738 -0.003312 9,825 306 179 576
2018-11-15 13:39:35 GMT 53.413147 0.000157 9,800 310 180 448
2018-11-15 13:39:31 GMT 53.410591 0.004443 9,775 325 177 1984
2018-11-15 13:39:25 GMT 53.407471 0.008554 9,775 328 179 320
2018-11-15 13:39:22 GMT 53.405331 0.010986 9,775 328 179 384
2018-11-15 13:39:19 GMT 53.402401 0.014056 9,625 328 177 1472
2018-11-15 13:39:16 GMT 53.400330 0.016323 9,500 326 176 2048
2018-11-15 13:39:13 GMT 53.398819 0.018049 9,625 325 176 1600
2018-11-15 13:39:10 GMT 53.396767 0.020519 9,475 324 176 -1152
2018-11-15 13:39:07 GMT 53.395157 0.022522 9,475 324 169 -3392
2018-11-15 13:39:04 GMT 53.393097 0.025033 9,575 325 164 -3648
2018-11-15 13:39:01 GMT 53.391495 0.026917 9,850 327 130 -2560
2018-11-15 13:38:58 GMT 53.389755 0.028800 9,975 327 127 -128
2018-11-15 13:38:54 GMT 53.388203 0.030455 9,975 327 122 64
2018-11-15 13:38:51 GMT 53.386524 0.032232 9,975 327 130 -128
2018-11-15 13:38:47 GMT 53.384384 0.034575 9,975 327 127 -64
2018-11-15 13:38:44 GMT 53.381264 0.037967 10,000 328 132 -128
2018-11-15 13:38:41 GMT 53.381264 0.037967 10,000 328 134 -64
2018-11-15 13:38:37 GMT 53.377533 0.041827 10,000 328 142 -128
2018-11-15 13:38:33 GMT 53.377533 0.041827 10,000 329 145 -64
2018-11-15 13:38:30 GMT 53.375885 0.043631 10,000 328 143 -64
2018-11-15 13:38:27 GMT 53.372131 0.047555 10,000 329 145 -64
2018-11-15 13:38:24 GMT 53.372131 0.047555 10,000 330 150 -64
2018-11-15 13:38:21 GMT 53.370346 0.049282 10,000 330 151 64
2018-11-15 13:38:16 GMT 53.367279 0.052264 10,000 331 156 64
2018-11-15 13:38:13 GMT 53.365345 0.054124 10,000 331 160 0
2018-11-15 13:38:09 GMT 53.362366 0.056870 10,000 332 163 64
2018-11-15 13:38:06 GMT 53.360413 0.058463 10,000 336 166 128
2018-11-15 13:38:03 GMT 53.358673 0.059483 9,975 352 174 -64
2018-11-15 13:37:59 GMT 53.352448 0.059859 10,000 17 178 0
2018-11-15 13:37:56 GMT 53.352448 0.059859 10,000 14 179 -64
2018-11-15 13:37:52 GMT 53.349655 0.058541 10,000 35 179 192
2018-11-15 13:37:48 GMT 53.346256 0.055174 10,000 36 180 128
2018-11-15 13:37:44 GMT 53.344440 0.052831 10,000 30 181 0
2018-11-15 13:37:41 GMT 53.342422 0.050459 10,000 27 181 0
2018-11-15 13:37:35 GMT 53.337204 0.047006 10,000 11 182 128
2018-11-15 13:37:32 GMT 53.334850 0.046530 10,000 357 183 64
2018-11-15 13:37:29 GMT 53.331940 0.046770 10,000 348 182 128
2018-11-15 13:37:25 GMT 53.328918 0.048026 10,000 326 179 0
2018-11-15 13:37:22 GMT 53.326355 0.050145 10,000 329 180 -64
2018-11-15 13:37:19 GMT 53.324753 0.051871 10,000 326 179 0
2018-11-15 13:37:16 GMT 53.323013 0.053833 10,000 326 179 0
2018-11-15 13:37:13 GMT 53.320908 0.056266 9,975 327 181 0
2018-11-15 13:37:10 GMT 53.318390 0.059012 9,975 328 182 0
2018-11-15 13:37:07 GMT 53.316605 0.060896 9,975 329 183 128
2018-11-15 13:37:04 GMT 53.314602 0.062929 9,975 329 183 128
2018-11-15 13:37:01 GMT 53.311996 0.065514 9,975 330 185 128
2018-11-15 13:36:58 GMT 53.308178 0.069392 9,975 331 120 -192
2018-11-15 13:36:55 GMT 53.304642 0.072946 9,975 330 188 -128
2018-11-15 13:36:51 GMT 53.304642 0.072946 9,975 329 182 256
2018-11-15 13:36:48 GMT 53.300777 0.076824 10,000 328 179 1088
2018-11-15 13:36:45 GMT 53.298569 0.079180 9,825 328 173 1600
2018-11-15 13:36:42 GMT 53.298569 0.079180 9,925 328 177 1408
2018-11-15 13:36:39 GMT 53.295593 0.082397 9,850 328 175 1536
2018-11-15 13:36:36 GMT 53.294586 0.083496 9,825 328 172 1664
2018-11-15 13:36:32 GMT 53.290859 0.087567 9,650 327 168 576
2018-11-15 13:36:28 GMT 53.288628 0.090072 9,750 326 164 -1536
2018-11-15 13:36:25 GMT 53.285366 0.093626 9,675 328 152 -2368
2018-11-15 13:36:22 GMT 53.285366 0.093626 9,775 328 140 -2048
2018-11-15 13:36:19 GMT 53.283829 0.095189 9,900 330 128 -2112
2018-11-15 13:36:16 GMT 53.282318 0.096680 9,975 330 120 -64
2018-11-15 13:36:12 GMT 53.280396 0.098563 9,975 330 123 64
2018-11-15 13:36:09 GMT 53.278431 0.100493 9,975 330 128 0
2018-11-15 13:36:05 GMT 53.276779 0.102094 9,975 330 133 -64
2018-11-15 13:36:02 GMT 53.274895 0.103885 9,975 330 134 -64
2018-11-15 13:35:59 GMT 53.273254 0.105469 10,000 328 146 -128
2018-11-15 13:35:56 GMT 53.271652 0.107117 10,000 328 144 -64
2018-11-15 13:35:53 GMT 53.270691 0.108137 10,000 329 143 -128
2018-11-15 13:35:50 GMT 53.268002 0.110994 10,000 328 149 -64
2018-11-15 13:35:47 GMT 53.267166 0.111825 10,000 328 149 -64
2018-11-15 13:35:43 GMT 53.264790 0.114387 10,000 328 151 64
2018-11-15 13:35:40 GMT 53.263161 0.116083 10,000 329 156 64
2018-11-15 13:35:37 GMT 53.260742 0.118507 10,000 329 163 -64
2018-11-15 13:35:34 GMT 53.258926 0.120457 10,000 329 163 -64
2018-11-15 13:35:31 GMT 53.257015 0.122384 10,000 343 173 64
2018-11-15 13:35:28 GMT 53.255108 0.123919 10,000 340 170 0
2018-11-15 13:35:25 GMT 53.252174 0.125212 10,000 353 178 64
2018-11-15 13:35:22 GMT 53.249660 0.125454 10,000 9 185 64
2018-11-15 13:35:19 GMT 53.247566 0.125131 10,000 60 187 64
2018-11-15 13:35:14 GMT 53.243050 0.122708 10,000 34 189 64
2018-11-15 13:35:11 GMT 53.240955 0.120607 10,000 37 188 64
2018-11-15 13:35:08 GMT 53.239281 0.118265 10,000 47 189 0
2018-11-15 13:35:04 GMT 53.237091 0.113865 10,000 57 187 128
2018-11-15 13:35:01 GMT 53.235764 0.109785 9,975 67 187 -64
2018-11-15 13:34:58 GMT 53.234718 0.100089 10,000 98 179 -128
2018-11-15 13:34:54 GMT 53.234718 0.100089 10,000 98 179 -128
2018-11-15 13:34:51 GMT 53.234985 0.095895 10,000 101 178 -128
2018-11-15 13:34:48 GMT 53.235718 0.091814 10,000 115 174 -64
2018-11-15 13:34:44 GMT 53.236908 0.088048 10,025 122 173 -128
2018-11-15 13:34:40 GMT 53.239197 0.083496 10,025 135 171 128
2018-11-15 13:34:37 GMT 53.241074 0.080279 10,025 134 171 64
2018-11-15 13:34:33 GMT 53.242996 0.076983 10,025 134 173 64
2018-11-15 13:34:30 GMT 53.244644 0.074236 10,025 134 173 64
2018-11-15 13:34:27 GMT 53.246403 0.071250 10,025 134 173 64
2018-11-15 13:34:23 GMT 53.248672 0.067409 10,025 135 173 64
2018-11-15 13:34:20 GMT 53.250080 0.065110 10,025 135 173 -64
2018-11-15 13:34:17 GMT 53.252083 0.061798 10,025 134 173 -128
2018-11-15 13:34:14 GMT 53.253708 0.059012 10,025 134 173 -64
2018-11-15 13:34:10 GMT 53.255947 0.055174 10,025 135 171 128
2018-11-15 13:34:07 GMT 53.258331 0.051243 10,025 135 171 128
2018-11-15 13:34:03 GMT 53.261673 0.045723 10,025 135 170 64
2018-11-15 13:33:57 GMT 53.263115 0.043299 10,025 134 169 0
2018-11-15 13:33:54 GMT 53.265015 0.039943 9,975 133 166 128
2018-11-15 13:33:49 GMT 53.267910 0.034898 10,000 134 164 64
2018-11-15 13:33:44 GMT 53.270844 0.029970 9,975 134 162 192
2018-11-15 13:33:41 GMT 53.271927 0.028094 10,000 134 161 320
2018-11-15 13:33:38 GMT 53.273495 0.025365 9,975 134 161 384
2018-11-15 13:33:35 GMT 53.275040 0.022836 9,975 135 162 128
2018-11-15 13:33:31 GMT 53.277283 0.019069 9,950 135 162 0
2018-11-15 13:33:28 GMT 53.278564 0.016950 9,950 135 162 -64
2018-11-15 13:33:25 GMT 53.280338 0.013975 9,950 135 165 -64
2018-11-15 13:33:22 GMT 53.282318 0.010672 9,950 135 161 0
2018-11-15 13:33:19 GMT 53.283646 0.008475 9,950 136 161 0
2018-11-15 13:33:13 GMT 53.286484 0.003958 9,950 135 161 64
2018-11-15 13:33:10 GMT 53.288406 0.000706 9,975 135 164 -320
2018-11-15 13:33:07 GMT 53.290009 -0.001962 9,950 135 164 -448
2018-11-15 13:33:04 GMT 53.294220 -0.008789 10,000 135 165 0
2018-11-15 13:33:00 GMT 53.294220 -0.008789 10,000 135 166 -64
2018-11-15 13:32:56 GMT 53.296188 -0.011928 10,000 136 167 -128
2018-11-15 13:32:53 GMT 53.297699 -0.014282 10,000 136 169 -64
2018-11-15 13:32:50 GMT 53.299473 -0.017045 10,000 137 171 -64
2018-11-15 13:32:47 GMT 53.301041 -0.019461 10,000 137 173 512
2018-11-15 13:32:44 GMT 53.303524 -0.023265 9,975 136 176 768
2018-11-15 13:32:41 GMT 53.307014 -0.028920 9,900 136 187 -448
2018-11-15 13:32:38 GMT 53.308224 -0.030859 9,900 136 187 -320
2018-11-15 13:32:32 GMT 53.310059 -0.033822 10,000 136 188 -512
2018-11-15 13:32:29 GMT 53.312180 -0.037079 9,950 136 188 -448
2018-11-15 13:32:25 GMT 53.314789 -0.041199 9,975 136 189 -384
2018-11-15 13:32:22 GMT 53.316605 -0.044188 10,000 135 192 0
2018-11-15 13:32:19 GMT 53.318893 -0.047947 10,025 135 192 64
2018-11-15 13:32:16 GMT 53.320496 -0.050616 10,025 135 193 192
2018-11-15 13:32:13 GMT 53.322376 -0.053720 10,000 135 197 64
2018-11-15 13:32:10 GMT 53.324284 -0.056951 10,000 136 202 -1664
2018-11-15 13:32:07 GMT 53.326286 -0.060182 10,075 136 202 -1536
2018-11-15 13:32:04 GMT 53.328613 -0.063818 10,125 140 198 -1856
2018-11-15 13:32:01 GMT 53.330055 -0.065999 10,150 139 199 -1856
2018-11-15 13:31:58 GMT 53.333038 -0.070038 10,325 143 196 -1856
2018-11-15 13:31:54 GMT 53.335098 -0.072274 10,400 152 189 -1344
2018-11-15 13:31:50 GMT 53.338390 -0.074966 10,500 165 183 -768
2018-11-15 13:31:47 GMT 53.343842 -0.076904 10,550 170 182 -448
2018-11-15 13:31:44 GMT 53.343842 -0.076904 10,625 190 180 -512
2018-11-15 13:31:40 GMT 53.347916 -0.076433 10,600 190 180 -512
2018-11-15 13:31:37 GMT 53.349380 -0.075884 10,625 204 181 64
2018-11-15 13:31:34 GMT 53.352264 -0.074079 10,625 206 182 256
2018-11-15 13:31:31 GMT 53.353500 -0.073059 10,625 209 183 192
2018-11-15 13:31:28 GMT 53.356064 -0.070548 10,600 210 188 320
2018-11-15 13:31:25 GMT 53.361099 -0.065683 10,600 210 184 192
2018-11-15 13:31:22 GMT 53.361099 -0.065683 10,625 211 188 320
2018-11-15 13:31:18 GMT 53.363621 -0.063252 10,600 210 184 192
2018-11-15 13:31:14 GMT 53.366501 -0.060503 10,575 209 174 192
2018-11-15 13:31:11 GMT 53.368790 -0.058405 10,600 209 168 320
2018-11-15 13:31:08 GMT 53.371353 -0.056109 10,575 208 158 192
2018-11-15 13:31:03 GMT 53.373550 -0.054147 10,575 208 143 -256
2018-11-15 13:31:00 GMT 53.376480 -0.051557 10,550 208 154 64
2018-11-15 13:30:57 GMT 53.377762 -0.050459 10,550 208 146 -128
2018-11-15 13:30:54 GMT 53.379776 -0.048711 10,525 208 150 64
2018-11-15 13:30:51 GMT 53.381359 -0.047338 10,525 208 137 -128
2018-11-15 13:30:48 GMT 53.383778 -0.045238 10,525 208 146 -128
2018-11-15 13:30:44 GMT 53.386002 -0.043396 10,400 203 128 768
2018-11-15 13:30:40 GMT 53.388203 -0.041441 10,575 206 129 704
2018-11-15 13:30:37 GMT 53.390018 -0.039825 10,575 208 134 320
2018-11-15 13:30:32 GMT 53.395935 -0.034764 10,525 207 130 512
2018-11-15 13:30:27 GMT 53.395935 -0.034764 10,525 206 129 640
2018-11-15 13:30:23 GMT 53.397263 -0.033665 10,475 205 128 704
2018-11-15 13:30:20 GMT 53.402435 -0.029977 10,425 204 129 704
2018-11-15 13:30:16 GMT 53.402435 -0.029977 10,375 203 128 768
2018-11-15 13:30:12 GMT 53.403809 -0.029035 10,350 203 128 832
2018-11-15 13:30:09 GMT 53.405777 -0.027623 10,225 204 129 832
2018-11-15 13:30:06 GMT 53.406914 -0.026900 10,275 204 129 960
2018-11-15 13:30:03 GMT 53.408249 -0.025896 10,250 204 129 832
2018-11-15 13:29:59 GMT 53.410675 -0.024170 10,125 202 130 576
2018-11-15 13:29:56 GMT 53.412872 -0.022757 10,125 201 131 512
2018-11-15 13:29:51 GMT 53.415253 -0.021345 10,100 195 128 -64
2018-11-15 13:29:48 GMT 53.416809 -0.020560 10,100 195 128 -64
2018-11-15 13:29:45 GMT 53.418503 -0.019775 10,100 195 128 0
2018-11-15 13:29:41 GMT 53.421616 -0.018520 10,100 193 128 0
2018-11-15 13:29:37 GMT 53.423302 -0.017853 10,100 191 129 64
2018-11-15 13:29:34 GMT 53.424545 -0.017421 10,075 192 128 128
2018-11-15 13:29:31 GMT 53.427120 -0.016641 10,075 191 130 64
2018-11-15 13:29:28 GMT 53.428482 -0.016166 10,075 191 130 64
2018-11-15 13:29:25 GMT 53.430405 -0.015616 10,075 187 140 -128
2018-11-15 13:29:22 GMT 53.432144 -0.015106 10,050 190 133 192
2018-11-15 13:29:19 GMT 53.434021 -0.014596 10,075 190 133 192
2018-11-15 13:29:16 GMT 53.435593 -0.014137 10,050 190 134 256
2018-11-15 13:29:12 GMT 53.438061 -0.013491 10,050 189 135 320
2018-11-15 13:29:09 GMT 53.440434 -0.012925 10,025 188 138 64
2018-11-15 13:29:06 GMT 53.443771 -0.012163 10,025 187 140 -128
2018-11-15 13:29:03 GMT 53.443771 -0.012163 10,025 187 140 -128
2018-11-15 13:29:00 GMT 53.445694 -0.011794 10,025 187 140 -128
2018-11-15 13:28:57 GMT 53.447556 -0.011471 10,025 187 140 -128
2018-11-15 13:28:54 GMT 53.449837 -0.011067 10,025 187 140 -64
2018-11-15 13:28:51 GMT 53.451511 -0.010744 10,025 186 141 128
2018-11-15 13:28:48 GMT 53.453701 -0.010421 10,025 185 141 128
2018-11-15 13:28:44 GMT 53.456818 -0.009966 10,025 184 143 64
2018-11-15 13:28:41 GMT 53.458191 -0.009888 10,025 181 145 128
2018-11-15 13:28:37 GMT 53.460526 -0.009809 10,025 180 145 192
2018-11-15 13:28:34 GMT 53.462639 -0.009775 10,000 180 145 256
2018-11-15 13:28:31 GMT 53.464828 -0.009888 10,000 178 148 448
2018-11-15 13:28:28 GMT 53.466614 -0.009966 9,950 176 150 576
2018-11-15 13:28:24 GMT 53.470139 -0.010359 9,925 175 153 960
2018-11-15 13:28:21 GMT 53.472088 -0.010582 9,900 174 155 1088
2018-11-15 13:28:18 GMT 53.473938 -0.010908 9,775 173 160 1280
2018-11-15 13:28:15 GMT 53.476135 -0.011300 9,775 172 169 1344
2018-11-15 13:28:12 GMT 53.481071 -0.012279 9,675 172 172 1280
2018-11-15 13:28:08 GMT 53.483448 -0.012844 9,525 172 176 1408
2018-11-15 13:28:05 GMT 53.483448 -0.012844 9,525 171 180 1728
2018-11-15 13:28:01 GMT 53.487213 -0.013733 9,375 171 185 2048
2018-11-15 13:27:58 GMT 53.490692 -0.014675 9,150 169 211 2048
2018-11-15 13:27:54 GMT 53.493458 -0.015429 9,225 170 200 2304
2018-11-15 13:27:51 GMT 53.498623 -0.016964 9,000 169 218 1600
2018-11-15 13:27:45 GMT 53.502113 -0.018095 8,900 168 229 -64
2018-11-15 13:27:42 GMT 53.505325 -0.019226 8,925 167 233 -1280
2018-11-15 13:27:39 GMT 53.509422 -0.020599 8,925 167 233 -1280
2018-11-15 13:27:36 GMT 53.511292 -0.021345 8,975 167 234 -1152
2018-11-15 13:27:33 GMT 53.514404 -0.022457 9,000 167 234 -896
2018-11-15 13:27:30 GMT 53.518734 -0.024154 9,225 164 238 -1216
2018-11-15 13:27:26 GMT 53.521946 -0.025527 9,150 165 237 -1152
2018-11-15 13:27:23 GMT 53.524933 -0.026838 9,200 164 238 -1152
2018-11-15 13:27:20 GMT 53.531258 -0.029808 9,275 164 239 -1216
2018-11-15 13:27:14 GMT 53.535049 -0.031625 9,425 163 240 -1344
2018-11-15 13:27:11 GMT 53.538845 -0.033605 9,475 162 241 -1408
2018-11-15 13:27:08 GMT 53.542755 -0.035706 9,550 161 241 -1472
2018-11-15 13:27:05 GMT 53.543823 -0.036271 9,550 161 240 -1472
2018-11-15 13:27:02 GMT 53.547913 -0.038531 9,725 159 242 -1216
2018-11-15 13:26:59 GMT 53.552158 -0.041037 9,750 160 241 -1280
2018-11-15 13:26:53 GMT 53.556488 -0.043622 9,875 159 242 -1152
2018-11-15 13:26:50 GMT 53.561005 -0.046369 9,925 159 243 -1216
2018-11-15 13:26:47 GMT 53.567474 -0.050569 10,025 158 245 -384
2018-11-15 13:26:44 GMT 53.567474 -0.050569 10,025 158 247 -512
2018-11-15 13:26:41 GMT 53.570686 -0.052670 10,050 158 249 -512
2018-11-15 13:26:38 GMT 53.573730 -0.054696 10,050 157 250 -384
2018-11-15 13:26:34 GMT 53.580090 -0.059132 10,075 157 253 256
2018-11-15 13:26:28 GMT 53.584000 -0.061879 10,050 157 252 -128
2018-11-15 13:26:25 GMT 53.587830 -0.064662 10,050 157 253 64
2018-11-15 13:26:22 GMT 53.591354 -0.067130 10,050 157 253 128
2018-11-15 13:26:19 GMT 53.593124 -0.068341 10,050 157 251 -64
2018-11-15 13:26:16 GMT 53.598061 -0.071815 10,050 157 253 0
2018-11-15 13:26:12 GMT 53.601654 -0.074393 10,050 156 247 0
2018-11-15 13:26:08 GMT 53.605728 -0.077297 10,050 156 242 384
2018-11-15 13:26:05 GMT 53.608627 -0.079409 10,050 156 234 -128
2018-11-15 13:26:01 GMT 53.616074 -0.084830 10,050 156 229 128
2018-11-15 13:25:58 GMT 53.616074 -0.084830 10,050 156 225 384
2018-11-15 13:25:55 GMT 53.618454 -0.086635 10,025 156 218 64
2018-11-15 13:25:49 GMT 53.624817 -0.091422 10,025 156 206 64
2018-11-15 13:25:45 GMT 53.627060 -0.093061 10,025 156 206 64
2018-11-15 13:25:42 GMT 53.633011 -0.097464 10,025 156 204 256
2018-11-15 13:25:38 GMT 53.633011 -0.097464 10,000 156 204 320
2018-11-15 13:25:34 GMT 53.637489 -0.100654 10,000 156 204 256
2018-11-15 13:25:30 GMT 53.640472 -0.102801 9,975 156 204 192
2018-11-15 13:25:27 GMT 53.642715 -0.104449 9,975 156 203 0
2018-11-15 13:25:23 GMT 53.646286 -0.107038 9,975 157 204 -448
2018-11-15 13:25:20 GMT 53.648846 -0.108894 10,000 157 205 -192
2018-11-15 13:25:17 GMT 53.651642 -0.110833 10,000 157 205 -192
2018-11-15 13:25:13 GMT 53.655716 -0.113708 10,025 157 207 -128
2018-11-15 13:25:10 GMT 53.658463 -0.115670 10,025 156 208 -256
2018-11-15 13:25:07 GMT 53.659836 -0.116690 10,050 155 210 -128
2018-11-15 13:25:04 GMT 53.663094 -0.119153 10,050 155 211 0
2018-11-15 13:25:01 GMT 53.665695 -0.121164 10,050 155 210 -64
2018-11-15 13:24:57 GMT 53.669842 -0.124323 10,050 155 209 64
2018-11-15 13:24:54 GMT 53.671875 -0.125950 10,050 155 206 192
2018-11-15 13:24:50 GMT 53.677872 -0.130659 10,025 154 199 -384
2018-11-15 13:24:47 GMT 53.677872 -0.130659 10,025 154 199 -384
2018-11-15 13:24:44 GMT 53.680344 -0.132699 10,050 154 198 -256
2018-11-15 13:24:41 GMT 53.683109 -0.134906 10,050 154 197 128
2018-11-15 13:24:36 GMT 53.687668 -0.138506 10,050 154 195 256
2018-11-15 13:24:33 GMT 53.689728 -0.140233 10,025 154 196 704
2018-11-15 13:24:29 GMT 53.692467 -0.142418 10,000 153 197 768
2018-11-15 13:24:26 GMT 53.694763 -0.144392 9,975 152 199 704
2018-11-15 13:24:23 GMT 53.697327 -0.146589 9,925 152 199 640
2018-11-15 13:24:20 GMT 53.699867 -0.148800 9,875 152 202 0
2018-11-15 13:24:16 GMT 53.703266 -0.151789 9,875 152 203 -64
2018-11-15 13:24:13 GMT 53.705521 -0.153809 9,875 145 203 0
2018-11-15 13:24:10 GMT 53.708527 -0.156474 9,875 151 201 -128
2018-11-15 13:24:06 GMT 53.711506 -0.159221 9,900 151 201 128
2018-11-15 13:24:02 GMT 53.714905 -0.162371 9,875 151 201 256
2018-11-15 13:23:59 GMT 53.718109 -0.165423 9,850 145 203 0
2018-11-15 13:23:56 GMT 53.719894 -0.167777 9,850 140 205 0
2018-11-15 13:23:53 GMT 53.722027 -0.171500 9,850 134 208 0
2018-11-15 13:23:50 GMT 53.724564 -0.178449 9,850 358 241 -64
2018-11-15 13:23:44 GMT 53.725616 -0.183236 9,900 94 225 320
2018-11-15 13:23:41 GMT 53.726349 -0.190063 9,875 91 227 320
2018-11-15 13:23:37 GMT 53.726078 -0.201551 9,850 79 234 192
2018-11-15 13:23:31 GMT 53.725113 -0.207485 9,850 69 238 0
2018-11-15 13:23:28 GMT 53.724262 -0.211244 9,850 64 240 -64
2018-11-15 13:23:25 GMT 53.722366 -0.217137 9,850 59 242 -64
2018-11-15 13:23:22 GMT 53.720024 -0.222312 9,825 45 244 256
2018-11-15 13:23:18 GMT 53.717606 -0.226397 9,825 40 245 128
2018-11-15 13:23:15 GMT 53.714813 -0.230007 9,825 29 247 -256
2018-11-15 13:23:12 GMT 53.710648 -0.233695 9,850 9 244 -64
2018-11-15 13:23:09 GMT 53.708405 -0.235107 9,850 14 245 -64
2018-11-15 13:23:06 GMT 53.704239 -0.236677 9,825 358 241 -64
2018-11-15 13:23:03 GMT 53.700989 -0.237069 9,850 0 242 128
2018-11-15 13:23:00 GMT 53.698658 -0.237095 9,850 359 242 128
2018-11-15 13:22:57 GMT 53.694717 -0.236912 9,850 358 241 -64
2018-11-15 13:22:54 GMT 53.691303 -0.236772 9,825 357 237 256
2018-11-15 13:22:51 GMT 53.687668 -0.236598 9,825 359 242 0
2018-11-15 13:22:48 GMT 53.684875 -0.236441 9,825 359 242 -64
2018-11-15 13:22:44 GMT 53.678455 -0.236044 9,825 358 240 -64
2018-11-15 13:22:41 GMT 53.677242 -0.235964 9,825 358 240 -64
2018-11-15 13:22:38 GMT 53.673145 -0.235641 9,850 358 240 -64
2018-11-15 13:22:34 GMT 53.668491 -0.235317 9,850 357 238 64
2018-11-15 13:22:31 GMT 53.664734 -0.234950 9,850 356 238 256
2018-11-15 13:22:28 GMT 53.662907 -0.234752 9,850 357 237 192
2018-11-15 13:22:25 GMT 53.659599 -0.234348 9,825 357 237 256
2018-11-15 13:22:22 GMT 53.652878 -0.233538 9,800 356 238 256
2018-11-15 13:22:19 GMT 53.652878 -0.233538 9,800 356 238 192
2018-11-15 13:22:15 GMT 53.648895 -0.233067 9,775 356 238 0
2018-11-15 13:22:12 GMT 53.644958 -0.232596 9,775 356 238 0
2018-11-15 13:22:08 GMT 53.641571 -0.232204 9,775 357 237 0
2018-11-15 13:22:05 GMT 53.637444 -0.231763 9,775 357 237 0
2018-11-15 13:22:01 GMT 53.632919 -0.231262 9,775 357 236 0
2018-11-15 13:21:58 GMT 53.630081 -0.230948 9,775 357 236 256
2018-11-15 13:21:55 GMT 53.625992 -0.230551 9,775 357 235 256
2018-11-15 13:21:51 GMT 53.622730 -0.230228 9,775 357 236 192
2018-11-15 13:21:48 GMT 53.619095 -0.229850 9,750 357 236 128
2018-11-15 13:21:45 GMT 53.615097 -0.229501 9,750 357 236 64
2018-11-15 13:21:42 GMT 53.612961 -0.229222 9,750 357 236 64
2018-11-15 13:21:39 GMT 53.608749 -0.228908 9,750 358 236 64
2018-11-15 13:21:35 GMT 53.603714 -0.228516 9,725 359 236 256
2018-11-15 13:21:32 GMT 53.601517 -0.228359 9,725 359 236 192
2018-11-15 13:21:29 GMT 53.598198 -0.228128 9,700 358 236 192
2018-11-15 13:21:26 GMT 53.594521 -0.227966 9,725 359 236 192
2018-11-15 13:21:23 GMT 53.587399 -0.227724 9,700 0 237 192
2018-11-15 13:21:20 GMT 53.587399 -0.227724 9,700 0 237 192
2018-11-15 13:21:17 GMT 53.584000 -0.227724 9,675 0 238 192
2018-11-15 13:21:14 GMT 53.581345 -0.227805 9,675 1 238 192
2018-11-15 13:21:11 GMT 53.577988 -0.228045 9,650 3 238 -64
2018-11-15 13:21:08 GMT 53.571804 -0.228855 9,675 4 238 -192
2018-11-15 13:21:05 GMT 53.571804 -0.228855 9,675 5 238 -64
2018-11-15 13:21:02 GMT 53.564774 -0.229986 9,675 5 238 64
2018-11-15 13:20:59 GMT 53.564774 -0.229986 9,675 5 238 64
2018-11-15 13:20:56 GMT 53.561096 -0.230556 9,675 5 238 128
2018-11-15 13:20:52 GMT 53.557709 -0.231105 9,675 5 238 128
2018-11-15 13:20:48 GMT 53.553181 -0.231844 9,650 4 237 256
2018-11-15 13:20:45 GMT 53.549286 -0.232361 9,650 4 237 256
2018-11-15 13:20:42 GMT 53.546944 -0.232732 9,650 4 238 256
2018-11-15 13:20:38 GMT 53.541595 -0.233381 9,625 3 238 64
2018-11-15 13:20:35 GMT 53.539448 -0.233540 9,600 1 238 320
2018-11-15 13:20:32 GMT 53.534866 -0.233930 9,525 0 239 192
2018-11-15 13:20:28 GMT 53.530472 -0.234087 9,600 0 238 256
2018-11-15 13:20:25 GMT 53.527348 -0.234106 9,575 0 238 192
2018-11-15 13:20:22 GMT 53.524693 -0.234025 9,575 0 238 192
2018-11-15 13:20:19 GMT 53.521683 -0.233930 9,550 0 239 128
2018-11-15 13:20:16 GMT 53.516872 -0.233944 9,550 0 239 320
2018-11-15 13:20:12 GMT 53.513798 -0.234106 9,525 3 239 256
2018-11-15 13:20:09 GMT 53.508774 -0.234637 9,525 5 241 192
2018-11-15 13:20:05 GMT 53.506668 -0.234950 9,525 6 240 0
2018-11-15 13:20:02 GMT 53.501976 -0.235883 9,500 7 238 -64
2018-11-15 13:19:59 GMT 53.499786 -0.236368 9,500 7 236 -64
2018-11-15 13:19:56 GMT 53.496201 -0.237175 9,525 8 234 -64
2018-11-15 13:19:53 GMT 53.492851 -0.237902 9,525 8 235 -64
2018-11-15 13:19:50 GMT 53.488953 -0.238874 9,525 8 234 -64
2018-11-15 13:19:47 GMT 53.486614 -0.239437 9,525 8 234 0
2018-11-15 13:19:44 GMT 53.482315 -0.240522 9,525 8 234 -128
2018-11-15 13:19:41 GMT 53.480255 -0.240993 9,525 8 234 0
2018-11-15 13:19:38 GMT 53.476463 -0.241942 9,525 8 226 0
2018-11-15 13:19:35 GMT 53.472740 -0.242830 9,525 8 226 64
2018-11-15 13:19:31 GMT 53.468784 -0.243800 9,525 8 222 128
2018-11-15 13:19:28 GMT 53.467201 -0.244203 9,525 8 215 192
2018-11-15 13:19:25 GMT 53.460526 -0.245858 9,500 8 204 64
2018-11-15 13:19:22 GMT 53.460526 -0.245858 9,500 7 194 0
2018-11-15 13:19:18 GMT 53.456635 -0.246722 9,500 7 186 -192
2018-11-15 13:19:15 GMT 53.454620 -0.247192 9,500 7 180 -704
2018-11-15 13:19:12 GMT 53.451599 -0.247899 9,525 7 180 -832
2018-11-15 13:19:08 GMT 53.449127 -0.248448 9,550 7 180 -832
2018-11-15 13:19:05 GMT 53.445923 -0.249076 9,625 7 179 -768
2018-11-15 13:19:02 GMT 53.443737 -0.249535 9,675 7 179 -704
2018-11-15 13:18:59 GMT 53.440804 -0.250181 9,725 6 179 -704
2018-11-15 13:18:56 GMT 53.439083 -0.250504 9,725 6 178 -704
2018-11-15 13:18:53 GMT 53.437035 -0.250908 9,775 6 178 -768
2018-11-15 13:18:50 GMT 53.434296 -0.251430 9,800 7 177 -1024
2018-11-15 13:18:47 GMT 53.432327 -0.251901 9,850 7 178 -896
2018-11-15 13:18:44 GMT 53.428986 -0.252529 9,900 7 176 -1024
2018-11-15 13:18:40 GMT 53.426094 -0.253170 9,950 7 175 -960
2018-11-15 13:18:37 GMT 53.421112 -0.254255 10,050 7 174 -576
2018-11-15 13:18:34 GMT 53.421112 -0.254255 10,050 7 174 -64
2018-11-15 13:18:30 GMT 53.417999 -0.254961 10,050 7 176 -64
2018-11-15 13:18:27 GMT 53.415619 -0.255513 10,075 7 181 -128
2018-11-15 13:18:24 GMT 53.413147 -0.256060 10,075 7 180 -128
2018-11-15 13:18:21 GMT 53.409668 -0.256845 10,075 7 184 -64
2018-11-15 13:18:18 GMT 53.407242 -0.257371 10,075 7 186 0
2018-11-15 13:18:15 GMT 53.405613 -0.257775 10,100 7 191 -192
2018-11-15 13:18:12 GMT 53.402985 -0.258336 10,075 7 194 -128
2018-11-15 13:18:09 GMT 53.400257 -0.258906 10,100 7 194 -128
2018-11-15 13:18:06 GMT 53.396858 -0.259714 10,100 7 195 -128
2018-11-15 13:18:03 GMT 53.391907 -0.260847 10,100 8 201 0
2018-11-15 13:18:00 GMT 53.388618 -0.261652 10,100 8 205 -384
2018-11-15 13:17:57 GMT 53.388618 -0.261652 10,100 8 208 -512
2018-11-15 13:17:51 GMT 53.383686 -0.262864 10,150 8 209 -384
2018-11-15 13:17:48 GMT 53.381058 -0.263593 10,175 8 210 -320
2018-11-15 13:17:45 GMT 53.378082 -0.264300 10,175 8 212 -256
2018-11-15 13:17:42 GMT 53.375118 -0.265045 10,225 8 222 64
2018-11-15 13:17:38 GMT 53.370392 -0.266183 10,225 8 219 0
2018-11-15 13:17:35 GMT 53.367859 -0.266822 10,200 8 232 128
2018-11-15 13:17:32 GMT 53.362289 -0.268223 10,225 9 234 0
2018-11-15 13:17:25 GMT 53.357620 -0.269479 10,225 8 231 128
2018-11-15 13:17:22 GMT 53.351212 -0.271205 10,200 9 237 0
2018-11-15 13:17:19 GMT 53.351212 -0.271205 10,200 9 237 0
2018-11-15 13:17:16 GMT 53.347412 -0.272147 10,200 7 237 0
2018-11-15 13:17:13 GMT 53.344116 -0.272881 10,200 6 237 0
2018-11-15 13:17:10 GMT 53.341965 -0.273324 10,125 2 238 128
2018-11-15 13:17:07 GMT 53.338856 -0.273931 10,200 6 237 64
2018-11-15 13:17:04 GMT 53.334961 -0.274501 10,200 4 237 384
2018-11-15 13:17:01 GMT 53.330990 -0.274901 10,175 3 239 448
2018-11-15 13:16:58 GMT 53.329220 -0.275062 10,150 2 238 192
2018-11-15 13:16:54 GMT 53.324249 -0.275443 10,125 1 240 192
2018-11-15 13:16:51 GMT 53.317520 -0.275757 10,125 2 238 128
2018-11-15 13:16:48 GMT 53.317520 -0.275757 10,125 2 238 64
2018-11-15 13:16:44 GMT 53.313675 -0.275992 10,125 2 238 192
2018-11-15 13:16:41 GMT 53.309296 -0.276274 10,100 2 238 256
2018-11-15 13:16:38 GMT 53.306225 -0.276516 10,075 2 239 256
2018-11-15 13:16:34 GMT 53.300995 -0.276855 10,075 2 239 -192
2018-11-15 13:16:30 GMT 53.297699 -0.277169 10,050 2 239 -128
2018-11-15 13:16:27 GMT 53.294865 -0.277405 10,075 2 239 -128
2018-11-15 13:16:23 GMT 53.285507 -0.277970 10,075 0 237 -192
2018-11-15 13:16:20 GMT 53.285507 -0.277970 10,100 0 236 -256
2018-11-15 13:16:17 GMT 53.283970 -0.277970 10,100 0 236 -192
2018-11-15 13:16:12 GMT 53.277222 -0.278051 10,125 0 233 -320
2018-11-15 13:16:09 GMT 53.274170 -0.278111 10,125 1 227 448
2018-11-15 13:16:06 GMT 53.272110 -0.278111 10,125 0 231 -320
2018-11-15 13:16:02 GMT 53.267071 -0.278213 10,175 1 226 576
2018-11-15 13:15:56 GMT 53.259659 -0.278582 10,175 1 227 448
2018-11-15 13:15:52 GMT 53.252747 -0.278896 10,150 1 227 384
2018-11-15 13:15:49 GMT 53.251053 -0.278896 10,125 0 227 320
2018-11-15 13:15:46 GMT 53.251053 -0.278896 10,100 0 227 320
2018-11-15 13:15:43 GMT 53.246750 -0.278974 10,100 0 227 256
2018-11-15 13:15:40 GMT 53.244495 -0.279020 10,075 0 227 64
2018-11-15 13:15:37 GMT 53.241653 -0.279101 10,075 0 227 0
2018-11-15 13:15:34 GMT 53.237373 -0.279182 10,075 1 227 256
2018-11-15 13:15:31 GMT 53.234573 -0.279288 10,050 0 226 256
2018-11-15 13:15:28 GMT 53.230820 -0.279053 10,050 343 222 192
2018-11-15 13:15:25 GMT 53.227318 -0.277970 10,025 345 222 192
2018-11-15 13:15:22 GMT 53.224960 -0.276699 10,025 335 219 64
2018-11-15 13:15:16 GMT 53.219604 -0.271912 10,025 317 212 128
2018-11-15 13:15:12 GMT 53.216331 -0.266822 10,000 308 210 128
2018-11-15 13:15:09 GMT 53.214844 -0.263515 10,000 303 207 128
2018-11-15 13:15:04 GMT 53.213074 -0.257856 10,000 290 202 128
2018-11-15 13:15:01 GMT 53.212280 -0.253627 10,000 265 193 128
2018-11-15 13:14:58 GMT 53.211914 -0.248526 10,000 272 196 192
2018-11-15 13:14:54 GMT 53.212097 -0.243190 9,975 265 193 128
2018-11-15 13:14:51 GMT 53.212978 -0.237983 9,975 248 188 -192
2018-11-15 13:14:48 GMT 53.213928 -0.234244 10,000 247 187 0
2018-11-15 13:14:45 GMT 53.215168 -0.229501 10,000 248 186 -128
2018-11-15 13:14:42 GMT 53.217587 -0.219969 10,000 248 185 64
2018-11-15 13:14:38 GMT 53.217587 -0.219969 10,000 248 185 64
2018-11-15 13:14:35 GMT 53.218239 -0.217222 10,000 248 185 64
2018-11-15 13:14:32 GMT 53.220566 -0.207485 10,000 250 182 192
2018-11-15 13:14:29 GMT 53.220566 -0.207485 10,000 250 183 256
2018-11-15 13:14:26 GMT 53.221298 -0.204189 10,000 250 182 64
2018-11-15 13:14:23 GMT 53.222336 -0.199450 9,975 250 183 192
2018-11-15 13:14:20 GMT 53.222946 -0.196891 9,975 250 182 192
2018-11-15 13:14:17 GMT 53.223732 -0.193311 9,975 250 182 64
2018-11-15 13:14:14 GMT 53.224476 -0.189999 9,950 252 184 -448
2018-11-15 13:14:10 GMT 53.225967 -0.183079 9,975 252 181 384
2018-11-15 13:14:07 GMT 53.226524 -0.180305 9,950 252 182 -128
2018-11-15 13:14:04 GMT 53.227249 -0.176801 9,950 252 184 -576
2018-11-15 13:14:01 GMT 53.228062 -0.172792 10,025 252 184 -704
2018-11-15 13:13:57 GMT 53.229317 -0.166330 10,025 247 176 -128
2018-11-15 13:13:53 GMT 53.230225 -0.161970 10,025 253 185 -512
2018-11-15 13:13:49 GMT 53.231506 -0.155586 10,025 252 185 -128
2018-11-15 13:13:46 GMT 53.232113 -0.152435 10,025 247 176 -128
2018-11-15 13:13:43 GMT 53.232948 -0.148235 10,025 253 185 -704
2018-11-15 13:13:39 GMT 53.234299 -0.141449 10,100 251 180 -256
2018-11-15 13:13:35 GMT 53.235043 -0.137975 10,100 250 180 0
2018-11-15 13:13:32 GMT 53.235947 -0.133798 10,125 250 179 128
2018-11-15 13:13:28 GMT 53.237324 -0.127797 10,125 248 176 -128
2018-11-15 13:13:25 GMT 53.238255 -0.123919 10,125 247 173 0
2018-11-15 13:13:22 GMT 53.238956 -0.121334 10,125 247 174 -64
2018-11-15 13:13:19 GMT 53.240112 -0.116847 10,125 247 173 64
2018-11-15 13:13:16 GMT 53.240936 -0.113787 10,125 247 172 64
2018-11-15 13:13:13 GMT 53.242401 -0.108451 10,125 244 170 -256
2018-11-15 13:13:09 GMT 53.243469 -0.104855 10,150 244 169 -256
2018-11-15 13:13:06 GMT 53.244263 -0.102189 10,150 243 167 -128
2018-11-15 13:13:03 GMT 53.245743 -0.097543 10,150 242 163 -128
2018-11-15 13:13:00 GMT 53.246635 -0.094676 10,150 240 158 -448
2018-11-15 13:12:57 GMT 53.247707 -0.091364 10,150 242 162 -128
2018-11-15 13:12:54 GMT 53.248775 -0.088295 10,150 239 157 -448
2018-11-15 13:12:51 GMT 53.249706 -0.085629 10,175 237 151 -576
2018-11-15 13:12:48 GMT 53.251053 -0.082241 10,225 238 148 -448
2018-11-15 13:12:45 GMT 53.253433 -0.075208 10,250 243 145 -384
2018-11-15 13:12:42 GMT 53.253433 -0.075208 10,250 246 147 -320
2018-11-15 13:12:37 GMT 53.254623 -0.069999 10,275 256 154 1472
2018-11-15 13:12:34 GMT 53.255154 -0.066322 10,200 262 159 2176
2018-11-15 13:12:31 GMT 53.255402 -0.063250 10,175 264 161 1984
2018-11-15 13:12:28 GMT 53.255527 -0.060021 10,025 267 168 896
2018-11-15 13:12:24 GMT 53.255814 -0.054853 9,975 241 154 256
2018-11-15 13:12:21 GMT 53.256317 -0.051458 10,000 251 161 256
2018-11-15 13:12:17 GMT 53.257462 -0.047320 9,975 234 154 128
2018-11-15 13:12:14 GMT 53.260601 -0.041603 9,975 223 153 -64
2018-11-15 13:12:11 GMT 53.260601 -0.041603 10,000 206 152 192
2018-11-15 13:12:05 GMT 53.266792 -0.037967 9,925 176 155 640
2018-11-15 13:12:02 GMT 53.266792 -0.037967 9,950 179 155 640
2018-11-15 13:11:59 GMT 53.268585 -0.037903 9,925 173 156 640
2018-11-15 13:11:55 GMT 53.272331 -0.039260 9,850 156 168 832
2018-11-15 13:11:49 GMT 53.275684 -0.042249 9,800 146 178 -448
2018-11-15 13:11:46 GMT 53.277641 -0.045399 9,825 120 187 -1792
2018-11-15 13:11:43 GMT 53.278839 -0.048418 9,975 114 188 -1280
2018-11-15 13:11:40 GMT 53.279617 -0.052264 10,000 89 190 -64
2018-11-15 13:11:37 GMT 53.279343 -0.062230 10,025 82 188 64
2018-11-15 13:11:33 GMT 53.279175 -0.063010 10,025 73 187 64
2018-11-15 13:11:29 GMT 53.277878 -0.068508 10,025 59 193 128
2018-11-15 13:11:23 GMT 53.272293 -0.079415 10,000 28 203 -320
2018-11-15 13:11:20 GMT 53.272293 -0.079415 10,000 32 202 -192
2018-11-15 13:11:17 GMT 53.268539 -0.083182 10,025 26 203 -128
2018-11-15 13:11:14 GMT 53.267624 -0.083967 10,025 26 203 -64
2018-11-15 13:11:11 GMT 53.265488 -0.085790 10,025 26 203 64
2018-11-15 13:11:08 GMT 53.262978 -0.087891 10,025 26 203 128
2018-11-15 13:11:04 GMT 53.259659 -0.090716 10,025 26 205 -64
2018-11-15 13:11:01 GMT 53.257187 -0.092756 10,025 27 204 -128
2018-11-15 13:10:58 GMT 53.253803 -0.095807 10,025 29 205 64
2018-11-15 13:10:55 GMT 53.251785 -0.097857 10,025 32 203 192
2018-11-15 13:10:51 GMT 53.249496 -0.100603 10,000 44 200 704
2018-11-15 13:10:48 GMT 53.247055 -0.104289 9,975 47 199 896
2018-11-15 13:10:45 GMT 53.245102 -0.108294 9,900 51 207 -512
2018-11-15 13:10:42 GMT 53.243317 -0.113552 9,850 67 207 -960
2018-11-15 13:10:38 GMT 53.241982 -0.118911 9,850 66 208 -1856
2018-11-15 13:10:35 GMT 53.240677 -0.123354 9,975 56 207 -1024
2018-11-15 13:10:30 GMT 53.237743 -0.128766 10,000 32 206 192
2018-11-15 13:10:27 GMT 53.235836 -0.130947 10,000 32 206 192
2018-11-15 13:10:24 GMT 53.232880 -0.133562 10,000 26 198 -64
2018-11-15 13:10:21 GMT 53.231186 -0.134975 10,000 26 198 -64
2018-11-15 13:10:18 GMT 53.228302 -0.137408 10,000 26 193 -64
2018-11-15 13:10:14 GMT 53.224960 -0.140233 10,025 26 192 -64
2018-11-15 13:10:10 GMT 53.222488 -0.142273 10,000 26 192 -64
2018-11-15 13:10:07 GMT 53.219971 -0.144392 10,025 27 192 -64
2018-11-15 13:10:04 GMT 53.215988 -0.147923 10,025 19 191 960
2018-11-15 13:10:01 GMT 53.214283 -0.149446 10,000 27 192 704
2018-11-15 13:09:57 GMT 53.211952 -0.151466 10,000 27 192 704
2018-11-15 13:09:54 GMT 53.209305 -0.153730 9,950 24 192 704
2018-11-15 13:09:51 GMT 53.207348 -0.155263 9,850 19 191 960
2018-11-15 13:09:48 GMT 53.204182 -0.157040 9,825 9 198 768
2018-11-15 13:09:45 GMT 53.201569 -0.157889 9,800 2 202 320
2018-11-15 13:09:42 GMT 53.198868 -0.157968 9,775 355 205 -704
2018-11-15 13:09:39 GMT 53.196079 -0.157444 9,850 352 205 -1728
2018-11-15 13:09:36 GMT 53.193146 -0.156636 9,875 352 205 -1664
2018-11-15 13:09:33 GMT 53.190399 -0.156313 10,000 22 200 256
2018-11-15 13:09:30 GMT 53.188168 -0.156717 9,975 29 188 -64
2018-11-15 13:09:27 GMT 53.184723 -0.158752 9,975 26 199 64
2018-11-15 13:09:24 GMT 53.181927 -0.161241 9,975 29 191 -64
2018-11-15 13:09:20 GMT 53.177132 -0.165845 9,975 30 185 -64
2018-11-15 13:09:14 GMT 53.175133 -0.167703 9,975 29 186 0
2018-11-15 13:09:11 GMT 53.173176 -0.169561 9,975 29 187 0
2018-11-15 13:09:08 GMT 53.170029 -0.172564 9,975 30 190 64
2018-11-15 13:09:05 GMT 53.167603 -0.174918 10,000 30 192 -128
2018-11-15 13:09:02 GMT 53.166092 -0.176409 9,975 30 192 -64
2018-11-15 13:08:59 GMT 53.163399 -0.179013 10,000 29 193 0
2018-11-15 13:08:55 GMT 53.159489 -0.182648 9,975 27 220 0
2018-11-15 13:08:52 GMT 53.157207 -0.184829 10,000 29 196 64
2018-11-15 13:08:49 GMT 53.155151 -0.186689 10,000 29 199 128
2018-11-15 13:08:46 GMT 53.152740 -0.188949 9,975 29 201 -192
2018-11-15 13:08:43 GMT 53.149853 -0.191614 10,000 29 203 -192
2018-11-15 13:08:40 GMT 53.147015 -0.194361 10,000 29 204 -64
2018-11-15 13:08:37 GMT 53.142151 -0.198853 10,000 29 205 0
2018-11-15 13:08:33 GMT 53.142151 -0.198853 10,000 29 208 -128
2018-11-15 13:08:30 GMT 53.138680 -0.202116 10,000 29 209 192
2018-11-15 13:08:27 GMT 53.137005 -0.203651 10,000 29 210 448
2018-11-15 13:08:24 GMT 53.134872 -0.205758 10,000 30 211 320
2018-11-15 13:08:21 GMT 53.132629 -0.207932 9,975 30 213 -128
2018-11-15 13:08:18 GMT 53.129608 -0.210781 9,975 29 215 -192
2018-11-15 13:08:13 GMT 53.125786 -0.214395 10,000 28 217 -64
2018-11-15 13:08:10 GMT 53.122108 -0.217626 10,000 27 218 -64
2018-11-15 13:08:07 GMT 53.119968 -0.219484 10,000 27 220 0
2018-11-15 13:08:03 GMT 53.115875 -0.222944 10,000 27 223 128
2018-11-15 13:07:57 GMT 53.111588 -0.226674 10,000 27 225 256
2018-11-15 13:07:54 GMT 53.108276 -0.229457 9,975 27 231 -128
2018-11-15 13:07:51 GMT 53.102142 -0.234637 9,975 27 233 -64
2018-11-15 13:07:45 GMT 53.099346 -0.237095 10,000 27 235 0
2018-11-15 13:07:41 GMT 53.095154 -0.240679 10,000 27 237 -128
2018-11-15 13:07:38 GMT 53.092209 -0.243149 10,000 26 241 -128
2018-11-15 13:07:35 GMT 53.088360 -0.246408 10,000 27 242 128
2018-11-15 13:07:32 GMT 53.085983 -0.248369 10,000 26 242 -64
2018-11-15 13:07:27 GMT 53.081886 -0.251901 10,000 26 242 128
2018-11-15 13:07:24 GMT 53.079483 -0.253906 10,000 30 236 1856
2018-11-15 13:07:21 GMT 53.074718 -0.257943 10,000 26 243 128
2018-11-15 13:07:18 GMT 53.073135 -0.259356 9,975 28 244 -192
2018-11-15 13:07:15 GMT 53.070190 -0.261917 10,000 30 233 2368
2018-11-15 13:07:12 GMT 53.067085 -0.264771 10,000 28 243 -64
2018-11-15 13:07:09 GMT 53.064011 -0.267517 9,950 30 237 1472
2018-11-15 13:07:06 GMT 53.060898 -0.270538 9,925 30 237 1664
2018-11-15 13:07:02 GMT 53.057076 -0.274187 9,725 30 231 2560
2018-11-15 13:06:58 GMT 53.053585 -0.277640 9,725 30 231 2624
2018-11-15 13:06:55 GMT 53.050743 -0.280465 9,600 30 231 2432
2018-11-15 13:06:52 GMT 53.047989 -0.283203 9,525 31 232 2176
2018-11-15 13:06:48 GMT 53.043869 -0.287323 9,250 30 231 2048
2018-11-15 13:06:45 GMT 53.041527 -0.289647 9,175 30 231 1984
2018-11-15 13:06:42 GMT 53.037941 -0.293178 9,150 30 229 2112
2018-11-15 13:06:38 GMT 53.035126 -0.295868 8,975 30 229 2112
2018-11-15 13:06:35 GMT 53.031891 -0.298985 8,875 29 228 2048
2018-11-15 13:06:32 GMT 53.029633 -0.301056 8,700 29 226 2048
2018-11-15 13:06:29 GMT 53.027374 -0.303144 8,700 29 226 2048
2018-11-15 13:06:26 GMT 53.024673 -0.305734 8,650 29 224 2240
2018-11-15 13:06:23 GMT 53.017319 -0.312483 8,225 29 222 2816
2018-11-15 13:06:19 GMT 53.017319 -0.312483 8,300 28 222 3200
2018-11-15 13:06:16 GMT 53.012283 -0.317078 8,125 29 222 3008
2018-11-15 13:06:13 GMT 53.012283 -0.317078 8,050 28 221 3072
2018-11-15 13:06:09 GMT 53.009174 -0.319938 7,925 28 221 3136
2018-11-15 13:06:06 GMT 53.005543 -0.323155 7,650 28 224 3072
2018-11-15 13:06:03 GMT 53.003220 -0.325241 7,275 28 225 2624
2018-11-15 13:06:00 GMT 53.000980 -0.327236 7,400 28 225 2752
2018-11-15 13:05:56 GMT 52.997498 -0.330276 7,250 28 225 2624
2018-11-15 13:05:53 GMT 52.991364 -0.335846 7,025 28 225 2688
2018-11-15 13:05:50 GMT 52.991364 -0.335846 6,575 29 224 2688
2018-11-15 13:05:46 GMT 52.987106 -0.339813 6,725 29 224 2688
2018-11-15 13:05:43 GMT 52.984360 -0.342460 6,550 31 224 2752
2018-11-15 13:05:40 GMT 52.981892 -0.344971 6,475 31 224 2688
2018-11-15 13:05:36 GMT 52.976540 -0.350464 6,175 31 223 1984
2018-11-15 13:05:33 GMT 52.972954 -0.354231 6,050 32 224 1920
2018-11-15 13:05:29 GMT 52.972954 -0.354231 6,075 32 223 2112
2018-11-15 13:05:26 GMT 52.969620 -0.357819 5,925 33 219 2496
2018-11-15 13:05:22 GMT 52.967136 -0.360509 5,825 33 218 2624
2018-11-15 13:05:18 GMT 52.963257 -0.364914 5,575 34 217 2624
2018-11-15 13:05:15 GMT 52.961037 -0.367493 5,275 35 216 2880
2018-11-15 13:05:12 GMT 52.958267 -0.370712 5,150 35 216 2944
2018-11-15 13:05:08 GMT 52.955826 -0.373614 5,125 36 215 3008
2018-11-15 13:05:05 GMT 52.952911 -0.377274 5,075 40 215 2752
2018-11-15 13:05:02 GMT 52.950611 -0.380598 4,950 41 215 2624
2018-11-15 13:04:57 GMT 52.947258 -0.386405 4,650 54 213 2432
2018-11-15 13:04:53 GMT 52.945084 -0.391769 4,500 77 206 2624
2018-11-15 13:04:49 GMT 52.943436 -0.398178 4,200 80 205 2368
2018-11-15 13:04:46 GMT 52.942749 -0.402832 4,150 83 204 2368
2018-11-15 13:04:43 GMT 52.942558 -0.407436 4,150 89 203 2240
2018-11-15 13:04:40 GMT 52.942650 -0.410339 4,000 95 200 2112
2018-11-15 13:04:36 GMT 52.943436 -0.416489 3,850 106 193 2496
2018-11-15 13:04:33 GMT 52.944946 -0.422363 3,500 124 185 2944
2018-11-15 13:04:27 GMT 52.947189 -0.427704 3,250 135 182 3264
2018-11-15 13:04:24 GMT 52.949158 -0.431137 3,225 136 182 3392
2018-11-15 13:04:21 GMT 52.950703 -0.433646 2,975 136 182 3584
2018-11-15 13:04:18 GMT 52.953369 -0.437851 2,850 135 184 3648
2018-11-15 13:04:14 GMT 52.955826 -0.441886 2,600 135 187 3264
2018-11-15 13:04:07 GMT 52.959457 -0.447617 2,275 136 188 2240
2018-11-15 13:04:01 GMT 52.963577 -0.454025 1,850 137 186 1728
2018-11-15 13:03:53 GMT 52.968952 -0.462132 1,625 136 183 3328
2018-11-15 13:03:42 GMT 52.975517 -0.472098 1,200 138 181 192
2018-11-15 13:03:31 GMT 52.982254 -0.481873 1,225 139 169 -256
2018-11-15 13:03:20 GMT 52.988800 -0.489960 1,225 155 163 832
2018-11-15 13:03:10 GMT 52.996170 -0.492249 1,175 184 166 -320
2018-11-15 13:03:07 GMT 52.998421 -0.491795 1,200 190 153 1408
2018-11-15 13:03:01 GMT 53.002655 -0.490540 1,175 191 160 1216
2018-11-15 13:02:55 GMT 53.007385 -0.489197 1,075 190 157 1344
2018-11-15 13:02:52 GMT 53.009857 -0.488510 950 191 143 1920
2018-11-15 13:02:49 GMT 53.011230 -0.488129 875 190 139 2048
2018-11-15 13:02:41 GMT 53.016388 -0.486616 575 189 131 2880

Making use of Plane Finder data

You are free to use the raw flight data, aircraft information and images provided in this report for your own purposes provided the data is correctly attributed to Plane Finder. We ask that you please credit Plane Finder and link to planefinder.net in close proximity to the content.

Optionally one of the following logos (no smaller then 150x24px) can be used and must link to planefinder.net

Embedding the Plane Finder map

You are welcome to embed the Plane Finder playback map on your website to offer visitors a more interactive experience. We suggest using the following HTML code:

<iframe src="//planefinder.net/data/report/CWL39-ZM333-7700-squawk-2018-11-15/map" width="800" height="600" seamless="seamless"></iframe>

Where our data comes from

Plane Finder has a global network of data feeds and antenna radars that receive data broadcast directly from aircraft. The primary technologies used are ADS-B and MLAT. We also show feeds from the FAA and a FLARM glider feed.

Click here to find out more about the Plane Finder network.

How we collect our data